<?xml version="1.0" encoding="UTF-8" standalone="no" ?>
<gpx xmlns="http://www.topografix.com/GPX/1/1" xmlns:xsi="http://www.w3.org/2001/XMLSchema-instance" xsi:schemaLocation="http://www.topografix.com/GPX/1/1 http://www.topografix.com/GPX/1/1/gpx.xsd" version="1.1" creator="VisuGPX - https://www.visugpx.com">
  <metadata>
    <name>64 - PEDESTRE - GR 108A - Du col de Peyrelue à Pont de Camps - Entretien balisage</name>
    <desc><![CDATA[dernier tronçon 2015]]></desc>
  </metadata>
  <trk>
    <name><![CDATA[ACTIVE LOG 001]]></name>
    <trkseg>
      <trkpt lat="42.81854" lon="-0.39882">
        <ele>1594.4836425781</ele>
        <time>2015-06-05T07:36:53Z</time>
      </trkpt>
      <trkpt lat="42.81856" lon="-0.39886">
        <ele>1594.4836425781</ele>
        <time>2015-06-05T07:36:56Z</time>
      </trkpt>
      <trkpt lat="42.81852" lon="-0.39885">
        <ele>1594.9643554688</ele>
        <time>2015-06-05T07:37:12Z</time>
      </trkpt>
      <trkpt lat="42.81858" lon="-0.39884">
        <ele>1594.4836425781</ele>
        <time>2015-06-05T07:37:22Z</time>
      </trkpt>
      <trkpt lat="42.81869" lon="-0.39864">
        <ele>1592.5612792969</ele>
        <time>2015-06-05T07:37:43Z</time>
      </trkpt>
      <trkpt lat="42.81867" lon="-0.39865">
        <ele>1592.5612792969</ele>
        <time>2015-06-05T07:38:21Z</time>
      </trkpt>
      <trkpt lat="42.81866" lon="-0.39864">
        <ele>1593.0417480469</ele>
        <time>2015-06-05T07:38:41Z</time>
      </trkpt>
      <trkpt lat="42.81864" lon="-0.39864">
        <ele>1592.0805664062</ele>
        <time>2015-06-05T07:38:43Z</time>
      </trkpt>
      <trkpt lat="42.8187" lon="-0.39863">
        <ele>1593.5224609375</ele>
        <time>2015-06-05T07:39:17Z</time>
      </trkpt>
      <trkpt lat="42.81868" lon="-0.39861">
        <ele>1593.0417480469</ele>
        <time>2015-06-05T07:39:38Z</time>
      </trkpt>
      <trkpt lat="42.81868" lon="-0.39863">
        <ele>1593.5224609375</ele>
        <time>2015-06-05T07:39:53Z</time>
      </trkpt>
      <trkpt lat="42.81867" lon="-0.39864">
        <ele>1593.5224609375</ele>
        <time>2015-06-05T07:40:18Z</time>
      </trkpt>
      <trkpt lat="42.81866" lon="-0.39865">
        <ele>1593.5224609375</ele>
        <time>2015-06-05T07:40:42Z</time>
      </trkpt>
      <trkpt lat="42.81866" lon="-0.39865">
        <ele>1593.0417480469</ele>
        <time>2015-06-05T07:41:07Z</time>
      </trkpt>
      <trkpt lat="42.81866" lon="-0.39865">
        <ele>1592.5612792969</ele>
        <time>2015-06-05T07:42:15Z</time>
      </trkpt>
      <trkpt lat="42.81866" lon="-0.39863">
        <ele>1591.119140625</ele>
        <time>2015-06-05T07:42:39Z</time>
      </trkpt>
      <trkpt lat="42.81864" lon="-0.39868">
        <ele>1591.5998535156</ele>
        <time>2015-06-05T07:43:20Z</time>
      </trkpt>
      <trkpt lat="42.8186" lon="-0.3986">
        <ele>1591.119140625</ele>
        <time>2015-06-05T07:43:57Z</time>
      </trkpt>
      <trkpt lat="42.8186" lon="-0.39855">
        <ele>1592.5612792969</ele>
        <time>2015-06-05T07:44:29Z</time>
      </trkpt>
      <trkpt lat="42.81865" lon="-0.39851">
        <ele>1592.5612792969</ele>
        <time>2015-06-05T07:44:39Z</time>
      </trkpt>
      <trkpt lat="42.81879" lon="-0.39835">
        <ele>1591.119140625</ele>
        <time>2015-06-05T07:44:57Z</time>
      </trkpt>
      <trkpt lat="42.81885" lon="-0.39828">
        <ele>1592.5612792969</ele>
        <time>2015-06-05T07:45:13Z</time>
      </trkpt>
      <trkpt lat="42.8189" lon="-0.39817">
        <ele>1594.9643554688</ele>
        <time>2015-06-05T07:45:33Z</time>
      </trkpt>
      <trkpt lat="42.81895" lon="-0.39805">
        <ele>1596.4067382812</ele>
        <time>2015-06-05T07:45:47Z</time>
      </trkpt>
      <trkpt lat="42.81901" lon="-0.39796">
        <ele>1598.3291015625</ele>
        <time>2015-06-05T07:45:59Z</time>
      </trkpt>
      <trkpt lat="42.81909" lon="-0.39779">
        <ele>1599.2905273438</ele>
        <time>2015-06-05T07:46:17Z</time>
      </trkpt>
      <trkpt lat="42.81915" lon="-0.39766">
        <ele>1601.6938476562</ele>
        <time>2015-06-05T07:46:32Z</time>
      </trkpt>
      <trkpt lat="42.81916" lon="-0.39755">
        <ele>1603.1357421875</ele>
        <time>2015-06-05T07:46:46Z</time>
      </trkpt>
      <trkpt lat="42.81916" lon="-0.3975">
        <ele>1603.6164550781</ele>
        <time>2015-06-05T07:46:50Z</time>
      </trkpt>
      <trkpt lat="42.81921" lon="-0.39737">
        <ele>1605.5390625</ele>
        <time>2015-06-05T07:47:06Z</time>
      </trkpt>
      <trkpt lat="42.81923" lon="-0.39724">
        <ele>1608.4228515625</ele>
        <time>2015-06-05T07:47:19Z</time>
      </trkpt>
      <trkpt lat="42.81928" lon="-0.39711">
        <ele>1609.3842773438</ele>
        <time>2015-06-05T07:47:30Z</time>
      </trkpt>
      <trkpt lat="42.81931" lon="-0.397">
        <ele>1611.3068847656</ele>
        <time>2015-06-05T07:47:44Z</time>
      </trkpt>
      <trkpt lat="42.81936" lon="-0.3969">
        <ele>1613.2297363281</ele>
        <time>2015-06-05T07:47:54Z</time>
      </trkpt>
      <trkpt lat="42.81938" lon="-0.39672">
        <ele>1614.1909179688</ele>
        <time>2015-06-05T07:48:08Z</time>
      </trkpt>
      <trkpt lat="42.81944" lon="-0.39658">
        <ele>1616.1135253906</ele>
        <time>2015-06-05T07:48:22Z</time>
      </trkpt>
      <trkpt lat="42.81948" lon="-0.39644">
        <ele>1618.0361328125</ele>
        <time>2015-06-05T07:48:36Z</time>
      </trkpt>
      <trkpt lat="42.8195" lon="-0.3963">
        <ele>1619.9587402344</ele>
        <time>2015-06-05T07:48:51Z</time>
      </trkpt>
      <trkpt lat="42.81952" lon="-0.39617">
        <ele>1622.8427734375</ele>
        <time>2015-06-05T07:49:03Z</time>
      </trkpt>
      <trkpt lat="42.8195" lon="-0.39604">
        <ele>1624.2846679688</ele>
        <time>2015-06-05T07:49:17Z</time>
      </trkpt>
      <trkpt lat="42.81951" lon="-0.39598">
        <ele>1627.1687011719</ele>
        <time>2015-06-05T07:49:24Z</time>
      </trkpt>
      <trkpt lat="42.81958" lon="-0.39587">
        <ele>1628.6108398438</ele>
        <time>2015-06-05T07:49:39Z</time>
      </trkpt>
      <trkpt lat="42.81959" lon="-0.39586">
        <ele>1629.0913085938</ele>
        <time>2015-06-05T07:49:40Z</time>
      </trkpt>
      <trkpt lat="42.8196" lon="-0.39577">
        <ele>1631.9753417969</ele>
        <time>2015-06-05T07:49:49Z</time>
      </trkpt>
      <trkpt lat="42.8196" lon="-0.39576">
        <ele>1631.9753417969</ele>
        <time>2015-06-05T07:49:50Z</time>
      </trkpt>
      <trkpt lat="42.81962" lon="-0.39565">
        <ele>1633.4172363281</ele>
        <time>2015-06-05T07:50:01Z</time>
      </trkpt>
      <trkpt lat="42.81961" lon="-0.39549">
        <ele>1635.33984375</ele>
        <time>2015-06-05T07:50:18Z</time>
      </trkpt>
      <trkpt lat="42.81962" lon="-0.39541">
        <ele>1637.2624511719</ele>
        <time>2015-06-05T07:50:28Z</time>
      </trkpt>
      <trkpt lat="42.81963" lon="-0.39531">
        <ele>1637.2624511719</ele>
        <time>2015-06-05T07:50:41Z</time>
      </trkpt>
      <trkpt lat="42.81965" lon="-0.39519">
        <ele>1639.1850585938</ele>
        <time>2015-06-05T07:51:06Z</time>
      </trkpt>
      <trkpt lat="42.81965" lon="-0.39511">
        <ele>1641.5883789062</ele>
        <time>2015-06-05T07:51:16Z</time>
      </trkpt>
      <trkpt lat="42.81963" lon="-0.39512">
        <ele>1642.0690917969</ele>
        <time>2015-06-05T07:51:29Z</time>
      </trkpt>
      <trkpt lat="42.81955" lon="-0.39521">
        <ele>1643.9916992188</ele>
        <time>2015-06-05T07:51:43Z</time>
      </trkpt>
      <trkpt lat="42.81946" lon="-0.3953">
        <ele>1647.3564453125</ele>
        <time>2015-06-05T07:51:59Z</time>
      </trkpt>
      <trkpt lat="42.81941" lon="-0.39529">
        <ele>1647.8371582031</ele>
        <time>2015-06-05T07:52:12Z</time>
      </trkpt>
      <trkpt lat="42.81941" lon="-0.39518">
        <ele>1649.759765625</ele>
        <time>2015-06-05T07:52:30Z</time>
      </trkpt>
      <trkpt lat="42.81931" lon="-0.39528">
        <ele>1651.2016601562</ele>
        <time>2015-06-05T07:52:46Z</time>
      </trkpt>
      <trkpt lat="42.81919" lon="-0.39539">
        <ele>1654.0856933594</ele>
        <time>2015-06-05T07:53:04Z</time>
      </trkpt>
      <trkpt lat="42.81911" lon="-0.39546">
        <ele>1656.9694824219</ele>
        <time>2015-06-05T07:53:18Z</time>
      </trkpt>
      <trkpt lat="42.81902" lon="-0.39548">
        <ele>1659.8532714844</ele>
        <time>2015-06-05T07:53:33Z</time>
      </trkpt>
      <trkpt lat="42.81905" lon="-0.39537">
        <ele>1662.7375488281</ele>
        <time>2015-06-05T07:53:47Z</time>
      </trkpt>
      <trkpt lat="42.81906" lon="-0.39531">
        <ele>1663.2182617188</ele>
        <time>2015-06-05T07:53:53Z</time>
      </trkpt>
      <trkpt lat="42.81909" lon="-0.39516">
        <ele>1664.66015625</ele>
        <time>2015-06-05T07:54:07Z</time>
      </trkpt>
      <trkpt lat="42.81911" lon="-0.39501">
        <ele>1667.0634765625</ele>
        <time>2015-06-05T07:54:23Z</time>
      </trkpt>
      <trkpt lat="42.81907" lon="-0.39498">
        <ele>1669.947265625</ele>
        <time>2015-06-05T07:54:36Z</time>
      </trkpt>
      <trkpt lat="42.819" lon="-0.39506">
        <ele>1673.3120117188</ele>
        <time>2015-06-05T07:54:49Z</time>
      </trkpt>
      <trkpt lat="42.8189" lon="-0.39516">
        <ele>1674.75390625</ele>
        <time>2015-06-05T07:55:06Z</time>
      </trkpt>
      <trkpt lat="42.8188" lon="-0.39524">
        <ele>1678.1186523438</ele>
        <time>2015-06-05T07:55:21Z</time>
      </trkpt>
      <trkpt lat="42.81875" lon="-0.39523">
        <ele>1679.560546875</ele>
        <time>2015-06-05T07:55:37Z</time>
      </trkpt>
      <trkpt lat="42.81878" lon="-0.39508">
        <ele>1682.9250488281</ele>
        <time>2015-06-05T07:55:52Z</time>
      </trkpt>
      <trkpt lat="42.81882" lon="-0.39492">
        <ele>1685.3283691406</ele>
        <time>2015-06-05T07:56:09Z</time>
      </trkpt>
      <trkpt lat="42.81883" lon="-0.39477">
        <ele>1687.2509765625</ele>
        <time>2015-06-05T07:56:25Z</time>
      </trkpt>
      <trkpt lat="42.81883" lon="-0.39468">
        <ele>1690.1350097656</ele>
        <time>2015-06-05T07:56:34Z</time>
      </trkpt>
      <trkpt lat="42.8188" lon="-0.39457">
        <ele>1692.5385742188</ele>
        <time>2015-06-05T07:56:49Z</time>
      </trkpt>
      <trkpt lat="42.81876" lon="-0.39463">
        <ele>1693.4997558594</ele>
        <time>2015-06-05T07:57:02Z</time>
      </trkpt>
      <trkpt lat="42.81875" lon="-0.39451">
        <ele>1695.4223632812</ele>
        <time>2015-06-05T07:57:16Z</time>
      </trkpt>
      <trkpt lat="42.81871" lon="-0.39456">
        <ele>1698.3061523438</ele>
        <time>2015-06-05T07:57:29Z</time>
      </trkpt>
      <trkpt lat="42.81868" lon="-0.39466">
        <ele>1699.267578125</ele>
        <time>2015-06-05T07:57:42Z</time>
      </trkpt>
      <trkpt lat="42.81861" lon="-0.39478">
        <ele>1702.6320800781</ele>
        <time>2015-06-05T07:57:59Z</time>
      </trkpt>
      <trkpt lat="42.81861" lon="-0.39468">
        <ele>1704.5546875</ele>
        <time>2015-06-05T07:58:12Z</time>
      </trkpt>
      <trkpt lat="42.81859" lon="-0.39459">
        <ele>1706.9580078125</ele>
        <time>2015-06-05T07:58:25Z</time>
      </trkpt>
      <trkpt lat="42.81853" lon="-0.39472">
        <ele>1708.880859375</ele>
        <time>2015-06-05T07:58:41Z</time>
      </trkpt>
      <trkpt lat="42.81851" lon="-0.39463">
        <ele>1709.8420410156</ele>
        <time>2015-06-05T07:58:55Z</time>
      </trkpt>
      <trkpt lat="42.81849" lon="-0.39449">
        <ele>1712.7260742188</ele>
        <time>2015-06-05T07:59:11Z</time>
      </trkpt>
      <trkpt lat="42.81844" lon="-0.39447">
        <ele>1714.16796875</ele>
        <time>2015-06-05T07:59:17Z</time>
      </trkpt>
      <trkpt lat="42.81841" lon="-0.39452">
        <ele>1716.5712890625</ele>
        <time>2015-06-05T07:59:32Z</time>
      </trkpt>
      <trkpt lat="42.81838" lon="-0.39468">
        <ele>1718.4938964844</ele>
        <time>2015-06-05T07:59:49Z</time>
      </trkpt>
      <trkpt lat="42.81837" lon="-0.3948">
        <ele>1719.9357910156</ele>
        <time>2015-06-05T08:00:02Z</time>
      </trkpt>
      <trkpt lat="42.81839" lon="-0.39496">
        <ele>1722.3391113281</ele>
        <time>2015-06-05T08:00:19Z</time>
      </trkpt>
      <trkpt lat="42.81837" lon="-0.39504">
        <ele>1722.8198242188</ele>
        <time>2015-06-05T08:00:35Z</time>
      </trkpt>
      <trkpt lat="42.8183" lon="-0.39511">
        <ele>1723.7810058594</ele>
        <time>2015-06-05T08:00:54Z</time>
      </trkpt>
      <trkpt lat="42.8182" lon="-0.3952">
        <ele>1726.1845703125</ele>
        <time>2015-06-05T08:01:12Z</time>
      </trkpt>
      <trkpt lat="42.81812" lon="-0.39526">
        <ele>1728.587890625</ele>
        <time>2015-06-05T08:01:24Z</time>
      </trkpt>
      <trkpt lat="42.8181" lon="-0.39528">
        <ele>1729.5490722656</ele>
        <time>2015-06-05T08:01:28Z</time>
      </trkpt>
      <trkpt lat="42.81801" lon="-0.39537">
        <ele>1731.9523925781</ele>
        <time>2015-06-05T08:01:43Z</time>
      </trkpt>
      <trkpt lat="42.81805" lon="-0.39527">
        <ele>1732.4331054688</ele>
        <time>2015-06-05T08:01:53Z</time>
      </trkpt>
      <trkpt lat="42.81806" lon="-0.39516">
        <ele>1734.8364257812</ele>
        <time>2015-06-05T08:02:08Z</time>
      </trkpt>
      <trkpt lat="42.81797" lon="-0.39525">
        <ele>1736.2783203125</ele>
        <time>2015-06-05T08:02:24Z</time>
      </trkpt>
      <trkpt lat="42.81787" lon="-0.39538">
        <ele>1738.2009277344</ele>
        <time>2015-06-05T08:02:42Z</time>
      </trkpt>
      <trkpt lat="42.81781" lon="-0.39539">
        <ele>1738.681640625</ele>
        <time>2015-06-05T08:02:51Z</time>
      </trkpt>
      <trkpt lat="42.81781" lon="-0.39545">
        <ele>1739.6428222656</ele>
        <time>2015-06-05T08:02:56Z</time>
      </trkpt>
      <trkpt lat="42.81776" lon="-0.39558">
        <ele>1742.5270996094</ele>
        <time>2015-06-05T08:03:10Z</time>
      </trkpt>
      <trkpt lat="42.81769" lon="-0.3957">
        <ele>1744.9301757812</ele>
        <time>2015-06-05T08:03:27Z</time>
      </trkpt>
      <trkpt lat="42.81762" lon="-0.39577">
        <ele>1747.3334960938</ele>
        <time>2015-06-05T08:03:42Z</time>
      </trkpt>
      <trkpt lat="42.81762" lon="-0.39568">
        <ele>1748.775390625</ele>
        <time>2015-06-05T08:03:51Z</time>
      </trkpt>
      <trkpt lat="42.81761" lon="-0.39548">
        <ele>1751.6594238281</ele>
        <time>2015-06-05T08:04:06Z</time>
      </trkpt>
      <trkpt lat="42.81758" lon="-0.39532">
        <ele>1754.0627441406</ele>
        <time>2015-06-05T08:04:25Z</time>
      </trkpt>
      <trkpt lat="42.81747" lon="-0.39543">
        <ele>1756.4660644531</ele>
        <time>2015-06-05T08:04:43Z</time>
      </trkpt>
      <trkpt lat="42.81737" lon="-0.3955">
        <ele>1759.8305664062</ele>
        <time>2015-06-05T08:04:58Z</time>
      </trkpt>
      <trkpt lat="42.81724" lon="-0.39557">
        <ele>1761.7534179688</ele>
        <time>2015-06-05T08:05:15Z</time>
      </trkpt>
      <trkpt lat="42.81715" lon="-0.39558">
        <ele>1765.5986328125</ele>
        <time>2015-06-05T08:05:29Z</time>
      </trkpt>
      <trkpt lat="42.81708" lon="-0.39562">
        <ele>1766.0791015625</ele>
        <time>2015-06-05T08:05:39Z</time>
      </trkpt>
      <trkpt lat="42.81701" lon="-0.39572">
        <ele>1766.5598144531</ele>
        <time>2015-06-05T08:05:51Z</time>
      </trkpt>
      <trkpt lat="42.81691" lon="-0.39585">
        <ele>1767.0405273438</ele>
        <time>2015-06-05T08:06:07Z</time>
      </trkpt>
      <trkpt lat="42.81683" lon="-0.39595">
        <ele>1768.0017089844</ele>
        <time>2015-06-05T08:06:22Z</time>
      </trkpt>
      <trkpt lat="42.81677" lon="-0.39605">
        <ele>1769.4438476562</ele>
        <time>2015-06-05T08:06:37Z</time>
      </trkpt>
      <trkpt lat="42.81676" lon="-0.39613">
        <ele>1770.8857421875</ele>
        <time>2015-06-05T08:06:51Z</time>
      </trkpt>
      <trkpt lat="42.81674" lon="-0.39623">
        <ele>1772.80859375</ele>
        <time>2015-06-05T08:07:07Z</time>
      </trkpt>
      <trkpt lat="42.81665" lon="-0.3963">
        <ele>1775.6923828125</ele>
        <time>2015-06-05T08:07:23Z</time>
      </trkpt>
      <trkpt lat="42.81662" lon="-0.39618">
        <ele>1777.1345214844</ele>
        <time>2015-06-05T08:07:37Z</time>
      </trkpt>
      <trkpt lat="42.81659" lon="-0.39612">
        <ele>1779.5375976562</ele>
        <time>2015-06-05T08:07:51Z</time>
      </trkpt>
      <trkpt lat="42.8165" lon="-0.39621">
        <ele>1781.4602050781</ele>
        <time>2015-06-05T08:08:05Z</time>
      </trkpt>
      <trkpt lat="42.81647" lon="-0.39636">
        <ele>1782.4216308594</ele>
        <time>2015-06-05T08:08:19Z</time>
      </trkpt>
      <trkpt lat="42.81629" lon="-0.39636">
        <ele>1786.2668457031</ele>
        <time>2015-06-05T08:08:40Z</time>
      </trkpt>
      <trkpt lat="42.81615" lon="-0.39633">
        <ele>1784.3442382812</ele>
        <time>2015-06-05T08:08:56Z</time>
      </trkpt>
      <trkpt lat="42.81612" lon="-0.39636">
        <ele>1784.3442382812</ele>
        <time>2015-06-05T08:09:01Z</time>
      </trkpt>
      <trkpt lat="42.81603" lon="-0.39644">
        <ele>1784.3442382812</ele>
        <time>2015-06-05T08:09:14Z</time>
      </trkpt>
      <trkpt lat="42.816" lon="-0.3965">
        <ele>1784.8249511719</ele>
        <time>2015-06-05T08:09:20Z</time>
      </trkpt>
      <trkpt lat="42.8159" lon="-0.39659">
        <ele>1784.8249511719</ele>
        <time>2015-06-05T08:09:35Z</time>
      </trkpt>
      <trkpt lat="42.81579" lon="-0.39664">
        <ele>1785.3054199219</ele>
        <time>2015-06-05T08:09:51Z</time>
      </trkpt>
      <trkpt lat="42.81574" lon="-0.3967">
        <ele>1787.2280273438</ele>
        <time>2015-06-05T08:10:00Z</time>
      </trkpt>
      <trkpt lat="42.81567" lon="-0.39677">
        <ele>1789.1508789062</ele>
        <time>2015-06-05T08:10:15Z</time>
      </trkpt>
      <trkpt lat="42.81557" lon="-0.39681">
        <ele>1791.0734863281</ele>
        <time>2015-06-05T08:10:27Z</time>
      </trkpt>
      <trkpt lat="42.81543" lon="-0.39678">
        <ele>1791.5541992188</ele>
        <time>2015-06-05T08:10:42Z</time>
      </trkpt>
      <trkpt lat="42.81536" lon="-0.39675">
        <ele>1791.5541992188</ele>
        <time>2015-06-05T08:11:00Z</time>
      </trkpt>
      <trkpt lat="42.81517" lon="-0.39678">
        <ele>1792.0349121094</ele>
        <time>2015-06-05T08:11:19Z</time>
      </trkpt>
      <trkpt lat="42.81512" lon="-0.39682">
        <ele>1794.9187011719</ele>
        <time>2015-06-05T08:11:26Z</time>
      </trkpt>
      <trkpt lat="42.81505" lon="-0.3969">
        <ele>1793.9575195312</ele>
        <time>2015-06-05T08:11:39Z</time>
      </trkpt>
      <trkpt lat="42.81503" lon="-0.39691">
        <ele>1792.99609375</ele>
        <time>2015-06-05T08:11:46Z</time>
      </trkpt>
      <trkpt lat="42.81485" lon="-0.39704">
        <ele>1793.4768066406</ele>
        <time>2015-06-05T08:12:07Z</time>
      </trkpt>
      <trkpt lat="42.81481" lon="-0.39707">
        <ele>1791.5541992188</ele>
        <time>2015-06-05T08:12:12Z</time>
      </trkpt>
      <trkpt lat="42.81475" lon="-0.39706">
        <ele>1794.4379882812</ele>
        <time>2015-06-05T08:12:19Z</time>
      </trkpt>
      <trkpt lat="42.8146" lon="-0.39708">
        <ele>1795.3994140625</ele>
        <time>2015-06-05T08:12:35Z</time>
      </trkpt>
      <trkpt lat="42.81444" lon="-0.39717">
        <ele>1795.8801269531</ele>
        <time>2015-06-05T08:12:55Z</time>
      </trkpt>
      <trkpt lat="42.81439" lon="-0.3972">
        <ele>1796.3608398438</ele>
        <time>2015-06-05T08:13:01Z</time>
      </trkpt>
      <trkpt lat="42.81431" lon="-0.39732">
        <ele>1796.8413085938</ele>
        <time>2015-06-05T08:13:17Z</time>
      </trkpt>
      <trkpt lat="42.8141" lon="-0.3975">
        <ele>1798.283203125</ele>
        <time>2015-06-05T08:13:40Z</time>
      </trkpt>
      <trkpt lat="42.81394" lon="-0.39758">
        <ele>1799.7253417969</ele>
        <time>2015-06-05T08:13:57Z</time>
      </trkpt>
      <trkpt lat="42.81389" lon="-0.39759">
        <ele>1801.6479492188</ele>
        <time>2015-06-05T08:14:03Z</time>
      </trkpt>
      <trkpt lat="42.81368" lon="-0.39759">
        <ele>1801.6479492188</ele>
        <time>2015-06-05T08:14:23Z</time>
      </trkpt>
      <trkpt lat="42.81349" lon="-0.39767">
        <ele>1802.6091308594</ele>
        <time>2015-06-05T08:14:42Z</time>
      </trkpt>
      <trkpt lat="42.81336" lon="-0.39768">
        <ele>1802.6091308594</ele>
        <time>2015-06-05T08:14:56Z</time>
      </trkpt>
      <trkpt lat="42.81326" lon="-0.39766">
        <ele>1803.5705566406</ele>
        <time>2015-06-05T08:15:06Z</time>
      </trkpt>
      <trkpt lat="42.81322" lon="-0.39764">
        <ele>1804.0515136719</ele>
        <time>2015-06-05T08:15:10Z</time>
      </trkpt>
      <trkpt lat="42.81302" lon="-0.3976">
        <ele>1804.0515136719</ele>
        <time>2015-06-05T08:15:29Z</time>
      </trkpt>
      <trkpt lat="42.81298" lon="-0.3976">
        <ele>1805.0126953125</ele>
        <time>2015-06-05T08:15:33Z</time>
      </trkpt>
      <trkpt lat="42.8128" lon="-0.39763">
        <ele>1806.4545898438</ele>
        <time>2015-06-05T08:15:52Z</time>
      </trkpt>
      <trkpt lat="42.81257" lon="-0.39766">
        <ele>1807.8967285156</ele>
        <time>2015-06-05T08:16:15Z</time>
      </trkpt>
      <trkpt lat="42.81246" lon="-0.39764">
        <ele>1808.8579101562</ele>
        <time>2015-06-05T08:16:26Z</time>
      </trkpt>
      <trkpt lat="42.81226" lon="-0.39765">
        <ele>1811.2612304688</ele>
        <time>2015-06-05T08:16:45Z</time>
      </trkpt>
      <trkpt lat="42.8121" lon="-0.39769">
        <ele>1812.703125</ele>
        <time>2015-06-05T08:17:01Z</time>
      </trkpt>
      <trkpt lat="42.81202" lon="-0.39772">
        <ele>1816.0676269531</ele>
        <time>2015-06-05T08:17:11Z</time>
      </trkpt>
      <trkpt lat="42.81197" lon="-0.39776">
        <ele>1817.0290527344</ele>
        <time>2015-06-05T08:17:17Z</time>
      </trkpt>
      <trkpt lat="42.81193" lon="-0.39777">
        <ele>1816.5483398438</ele>
        <time>2015-06-05T08:17:22Z</time>
      </trkpt>
      <trkpt lat="42.81186" lon="-0.39779">
        <ele>1817.5095214844</ele>
        <time>2015-06-05T08:17:30Z</time>
      </trkpt>
      <trkpt lat="42.81172" lon="-0.39777">
        <ele>1816.0676269531</ele>
        <time>2015-06-05T08:17:46Z</time>
      </trkpt>
      <trkpt lat="42.81163" lon="-0.39775">
        <ele>1817.0290527344</ele>
        <time>2015-06-05T08:17:56Z</time>
      </trkpt>
      <trkpt lat="42.81144" lon="-0.39771">
        <ele>1817.5095214844</ele>
        <time>2015-06-05T08:18:15Z</time>
      </trkpt>
      <trkpt lat="42.81128" lon="-0.39769">
        <ele>1818.4709472656</ele>
        <time>2015-06-05T08:18:32Z</time>
      </trkpt>
      <trkpt lat="42.81114" lon="-0.39774">
        <ele>1817.990234375</ele>
        <time>2015-06-05T08:18:51Z</time>
      </trkpt>
      <trkpt lat="42.81107" lon="-0.39777">
        <ele>1817.990234375</ele>
        <time>2015-06-05T08:19:04Z</time>
      </trkpt>
      <trkpt lat="42.81105" lon="-0.39778">
        <ele>1817.990234375</ele>
        <time>2015-06-05T08:19:06Z</time>
      </trkpt>
      <trkpt lat="42.81089" lon="-0.3978">
        <ele>1818.9516601562</ele>
        <time>2015-06-05T08:19:24Z</time>
      </trkpt>
      <trkpt lat="42.81074" lon="-0.39784">
        <ele>1819.9128417969</ele>
        <time>2015-06-05T08:19:39Z</time>
      </trkpt>
      <trkpt lat="42.8106" lon="-0.39791">
        <ele>1820.8745117188</ele>
        <time>2015-06-05T08:19:55Z</time>
      </trkpt>
      <trkpt lat="42.81055" lon="-0.39794">
        <ele>1821.3549804688</ele>
        <time>2015-06-05T08:20:01Z</time>
      </trkpt>
      <trkpt lat="42.81035" lon="-0.39796">
        <ele>1822.31640625</ele>
        <time>2015-06-05T08:20:21Z</time>
      </trkpt>
      <trkpt lat="42.81031" lon="-0.39797">
        <ele>1822.7971191406</ele>
        <time>2015-06-05T08:20:26Z</time>
      </trkpt>
      <trkpt lat="42.81009" lon="-0.39795">
        <ele>1825.2001953125</ele>
        <time>2015-06-05T08:20:48Z</time>
      </trkpt>
      <trkpt lat="42.80996" lon="-0.39795">
        <ele>1825.2001953125</ele>
        <time>2015-06-05T08:21:02Z</time>
      </trkpt>
      <trkpt lat="42.8098" lon="-0.39794">
        <ele>1825.2001953125</ele>
        <time>2015-06-05T08:21:19Z</time>
      </trkpt>
      <trkpt lat="42.80963" lon="-0.39794">
        <ele>1824.7197265625</ele>
        <time>2015-06-05T08:21:36Z</time>
      </trkpt>
      <trkpt lat="42.80945" lon="-0.39791">
        <ele>1827.603515625</ele>
        <time>2015-06-05T08:21:55Z</time>
      </trkpt>
      <trkpt lat="42.80944" lon="-0.39791">
        <ele>1826.6423339844</ele>
        <time>2015-06-05T08:21:56Z</time>
      </trkpt>
      <trkpt lat="42.80928" lon="-0.39788">
        <ele>1825.6809082031</ele>
        <time>2015-06-05T08:22:11Z</time>
      </trkpt>
      <trkpt lat="42.80911" lon="-0.3978">
        <ele>1826.1616210938</ele>
        <time>2015-06-05T08:22:27Z</time>
      </trkpt>
      <trkpt lat="42.80893" lon="-0.39773">
        <ele>1826.1616210938</ele>
        <time>2015-06-05T08:22:44Z</time>
      </trkpt>
      <trkpt lat="42.80875" lon="-0.39764">
        <ele>1827.603515625</ele>
        <time>2015-06-05T08:23:01Z</time>
      </trkpt>
      <trkpt lat="42.80872" lon="-0.39762">
        <ele>1828.0842285156</ele>
        <time>2015-06-05T08:23:04Z</time>
      </trkpt>
      <trkpt lat="42.80862" lon="-0.39754">
        <ele>1828.0842285156</ele>
        <time>2015-06-05T08:23:19Z</time>
      </trkpt>
      <trkpt lat="42.80855" lon="-0.39751">
        <ele>1828.5649414062</ele>
        <time>2015-06-05T08:23:26Z</time>
      </trkpt>
      <trkpt lat="42.80845" lon="-0.39748">
        <ele>1829.0454101562</ele>
        <time>2015-06-05T08:23:36Z</time>
      </trkpt>
      <trkpt lat="42.8084" lon="-0.39749">
        <ele>1829.5261230469</ele>
        <time>2015-06-05T08:23:40Z</time>
      </trkpt>
      <trkpt lat="42.80834" lon="-0.39747">
        <ele>1829.5261230469</ele>
        <time>2015-06-05T08:23:46Z</time>
      </trkpt>
      <trkpt lat="42.80824" lon="-0.39747">
        <ele>1829.5261230469</ele>
        <time>2015-06-05T08:23:56Z</time>
      </trkpt>
      <trkpt lat="42.80819" lon="-0.39755">
        <ele>1830.4875488281</ele>
        <time>2015-06-05T08:24:12Z</time>
      </trkpt>
      <trkpt lat="42.8082" lon="-0.39756">
        <ele>1829.5261230469</ele>
        <time>2015-06-05T08:24:34Z</time>
      </trkpt>
      <trkpt lat="42.80818" lon="-0.39756">
        <ele>1830.9682617188</ele>
        <time>2015-06-05T08:25:00Z</time>
      </trkpt>
      <trkpt lat="42.80819" lon="-0.39756">
        <ele>1830.4875488281</ele>
        <time>2015-06-05T08:25:15Z</time>
      </trkpt>
      <trkpt lat="42.80817" lon="-0.39755">
        <ele>1830.9682617188</ele>
        <time>2015-06-05T08:25:33Z</time>
      </trkpt>
      <trkpt lat="42.80797" lon="-0.39755">
        <ele>1831.4487304688</ele>
        <time>2015-06-05T08:25:52Z</time>
      </trkpt>
      <trkpt lat="42.8078" lon="-0.39759">
        <ele>1832.41015625</ele>
        <time>2015-06-05T08:26:09Z</time>
      </trkpt>
      <trkpt lat="42.80768" lon="-0.3976">
        <ele>1832.890625</ele>
        <time>2015-06-05T08:26:23Z</time>
      </trkpt>
      <trkpt lat="42.80753" lon="-0.3976">
        <ele>1832.890625</ele>
        <time>2015-06-05T08:26:39Z</time>
      </trkpt>
      <trkpt lat="42.80746" lon="-0.39756">
        <ele>1833.3713378906</ele>
        <time>2015-06-05T08:26:49Z</time>
      </trkpt>
      <trkpt lat="42.80742" lon="-0.39759">
        <ele>1833.3713378906</ele>
        <time>2015-06-05T08:26:54Z</time>
      </trkpt>
      <trkpt lat="42.80721" lon="-0.39762">
        <ele>1833.8520507812</ele>
        <time>2015-06-05T08:27:15Z</time>
      </trkpt>
      <trkpt lat="42.8072" lon="-0.39762">
        <ele>1834.3327636719</ele>
        <time>2015-06-05T08:27:16Z</time>
      </trkpt>
      <trkpt lat="42.80718" lon="-0.39762">
        <ele>1833.8520507812</ele>
        <time>2015-06-05T08:27:18Z</time>
      </trkpt>
      <trkpt lat="42.80707" lon="-0.39753">
        <ele>1833.8520507812</ele>
        <time>2015-06-05T08:27:31Z</time>
      </trkpt>
      <trkpt lat="42.80693" lon="-0.39757">
        <ele>1834.8134765625</ele>
        <time>2015-06-05T08:27:45Z</time>
      </trkpt>
      <trkpt lat="42.80688" lon="-0.39753">
        <ele>1834.8134765625</ele>
        <time>2015-06-05T08:27:51Z</time>
      </trkpt>
      <trkpt lat="42.80675" lon="-0.39734">
        <ele>1835.2939453125</ele>
        <time>2015-06-05T08:28:10Z</time>
      </trkpt>
      <trkpt lat="42.80669" lon="-0.39728">
        <ele>1835.7746582031</ele>
        <time>2015-06-05T08:28:17Z</time>
      </trkpt>
      <trkpt lat="42.80665" lon="-0.39731">
        <ele>1837.216796875</ele>
        <time>2015-06-05T08:28:23Z</time>
      </trkpt>
      <trkpt lat="42.80651" lon="-0.39739">
        <ele>1837.6975097656</ele>
        <time>2015-06-05T08:28:38Z</time>
      </trkpt>
      <trkpt lat="42.8064" lon="-0.3974">
        <ele>1838.6589355469</ele>
        <time>2015-06-05T08:28:50Z</time>
      </trkpt>
      <trkpt lat="42.80639" lon="-0.3974">
        <ele>1836.2556152344</ele>
        <time>2015-06-05T08:29:06Z</time>
      </trkpt>
      <trkpt lat="42.80638" lon="-0.3974">
        <ele>1834.8134765625</ele>
        <time>2015-06-05T08:29:08Z</time>
      </trkpt>
      <trkpt lat="42.80638" lon="-0.3974">
        <ele>1837.216796875</ele>
        <time>2015-06-05T08:29:16Z</time>
      </trkpt>
      <trkpt lat="42.80638" lon="-0.39741">
        <ele>1835.7746582031</ele>
        <time>2015-06-05T08:29:19Z</time>
      </trkpt>
      <trkpt lat="42.80637" lon="-0.39739">
        <ele>1836.7360839844</ele>
        <time>2015-06-05T08:29:42Z</time>
      </trkpt>
      <trkpt lat="42.80637" lon="-0.39741">
        <ele>1836.2556152344</ele>
        <time>2015-06-05T08:30:41Z</time>
      </trkpt>
      <trkpt lat="42.80638" lon="-0.39738">
        <ele>1836.7360839844</ele>
        <time>2015-06-05T08:31:02Z</time>
      </trkpt>
      <trkpt lat="42.80638" lon="-0.39737">
        <ele>1836.7360839844</ele>
        <time>2015-06-05T08:31:32Z</time>
      </trkpt>
      <trkpt lat="42.80634" lon="-0.39746">
        <ele>1836.7360839844</ele>
        <time>2015-06-05T08:32:32Z</time>
      </trkpt>
      <trkpt lat="42.80634" lon="-0.39748">
        <ele>1837.216796875</ele>
        <time>2015-06-05T08:32:55Z</time>
      </trkpt>
      <trkpt lat="42.80633" lon="-0.39749">
        <ele>1836.7360839844</ele>
        <time>2015-06-05T08:33:06Z</time>
      </trkpt>
      <trkpt lat="42.80626" lon="-0.39755">
        <ele>1838.6589355469</ele>
        <time>2015-06-05T08:33:22Z</time>
      </trkpt>
      <trkpt lat="42.80624" lon="-0.39756">
        <ele>1838.1782226562</ele>
        <time>2015-06-05T08:33:24Z</time>
      </trkpt>
      <trkpt lat="42.80621" lon="-0.39757">
        <ele>1839.1394042969</ele>
        <time>2015-06-05T08:33:28Z</time>
      </trkpt>
      <trkpt lat="42.80619" lon="-0.39756">
        <ele>1839.1394042969</ele>
        <time>2015-06-05T08:33:31Z</time>
      </trkpt>
      <trkpt lat="42.80608" lon="-0.39764">
        <ele>1840.1008300781</ele>
        <time>2015-06-05T08:33:46Z</time>
      </trkpt>
      <trkpt lat="42.80593" lon="-0.39774">
        <ele>1840.5812988281</ele>
        <time>2015-06-05T08:34:04Z</time>
      </trkpt>
      <trkpt lat="42.80583" lon="-0.3978">
        <ele>1841.5427246094</ele>
        <time>2015-06-05T08:34:18Z</time>
      </trkpt>
      <trkpt lat="42.80574" lon="-0.39784">
        <ele>1842.5041503906</ele>
        <time>2015-06-05T08:34:32Z</time>
      </trkpt>
      <trkpt lat="42.80565" lon="-0.39784">
        <ele>1842.5041503906</ele>
        <time>2015-06-05T08:34:45Z</time>
      </trkpt>
      <trkpt lat="42.80548" lon="-0.39776">
        <ele>1842.5041503906</ele>
        <time>2015-06-05T08:35:04Z</time>
      </trkpt>
      <trkpt lat="42.80523" lon="-0.39775">
        <ele>1843.4653320312</ele>
        <time>2015-06-05T08:35:27Z</time>
      </trkpt>
      <trkpt lat="42.80508" lon="-0.39779">
        <ele>1843.9460449219</ele>
        <time>2015-06-05T08:35:42Z</time>
      </trkpt>
      <trkpt lat="42.80495" lon="-0.39781">
        <ele>1845.3879394531</ele>
        <time>2015-06-05T08:35:55Z</time>
      </trkpt>
      <trkpt lat="42.80489" lon="-0.39783">
        <ele>1845.3879394531</ele>
        <time>2015-06-05T08:36:02Z</time>
      </trkpt>
      <trkpt lat="42.80469" lon="-0.39782">
        <ele>1845.8686523438</ele>
        <time>2015-06-05T08:36:21Z</time>
      </trkpt>
      <trkpt lat="42.80453" lon="-0.39788">
        <ele>1847.310546875</ele>
        <time>2015-06-05T08:36:36Z</time>
      </trkpt>
      <trkpt lat="42.80431" lon="-0.3979">
        <ele>1848.2717285156</ele>
        <time>2015-06-05T08:36:57Z</time>
      </trkpt>
      <trkpt lat="42.8041" lon="-0.39804">
        <ele>1849.2331542969</ele>
        <time>2015-06-05T08:37:19Z</time>
      </trkpt>
      <trkpt lat="42.80405" lon="-0.39811">
        <ele>1848.2717285156</ele>
        <time>2015-06-05T08:37:25Z</time>
      </trkpt>
      <trkpt lat="42.8039" lon="-0.3983">
        <ele>1848.7524414062</ele>
        <time>2015-06-05T08:37:43Z</time>
      </trkpt>
      <trkpt lat="42.80369" lon="-0.39841">
        <ele>1848.7524414062</ele>
        <time>2015-06-05T08:38:03Z</time>
      </trkpt>
      <trkpt lat="42.80356" lon="-0.39845">
        <ele>1848.7524414062</ele>
        <time>2015-06-05T08:38:16Z</time>
      </trkpt>
      <trkpt lat="42.80336" lon="-0.39853">
        <ele>1849.2331542969</ele>
        <time>2015-06-05T08:38:35Z</time>
      </trkpt>
      <trkpt lat="42.80317" lon="-0.39844">
        <ele>1849.7138671875</ele>
        <time>2015-06-05T08:38:54Z</time>
      </trkpt>
      <trkpt lat="42.8031" lon="-0.39835">
        <ele>1851.6364746094</ele>
        <time>2015-06-05T08:39:02Z</time>
      </trkpt>
      <trkpt lat="42.80308" lon="-0.39834">
        <ele>1850.6750488281</ele>
        <time>2015-06-05T08:39:04Z</time>
      </trkpt>
      <trkpt lat="42.80307" lon="-0.39831">
        <ele>1851.6364746094</ele>
        <time>2015-06-05T08:39:07Z</time>
      </trkpt>
      <trkpt lat="42.80304" lon="-0.39827">
        <ele>1851.1557617188</ele>
        <time>2015-06-05T08:39:11Z</time>
      </trkpt>
      <trkpt lat="42.80302" lon="-0.39826">
        <ele>1851.1557617188</ele>
        <time>2015-06-05T08:39:13Z</time>
      </trkpt>
      <trkpt lat="42.803" lon="-0.39821">
        <ele>1851.1557617188</ele>
        <time>2015-06-05T08:39:17Z</time>
      </trkpt>
      <trkpt lat="42.80291" lon="-0.39817">
        <ele>1851.1557617188</ele>
        <time>2015-06-05T08:39:26Z</time>
      </trkpt>
      <trkpt lat="42.80279" lon="-0.39818">
        <ele>1851.6364746094</ele>
        <time>2015-06-05T08:39:46Z</time>
      </trkpt>
      <trkpt lat="42.80279" lon="-0.39818">
        <ele>1851.6364746094</ele>
        <time>2015-06-05T08:40:15Z</time>
      </trkpt>
      <trkpt lat="42.80279" lon="-0.39817">
        <ele>1851.6364746094</ele>
        <time>2015-06-05T08:40:34Z</time>
      </trkpt>
      <trkpt lat="42.80279" lon="-0.39818">
        <ele>1851.1557617188</ele>
        <time>2015-06-05T08:40:46Z</time>
      </trkpt>
      <trkpt lat="42.8028" lon="-0.39818">
        <ele>1851.1557617188</ele>
        <time>2015-06-05T08:41:00Z</time>
      </trkpt>
      <trkpt lat="42.80281" lon="-0.39818">
        <ele>1851.6364746094</ele>
        <time>2015-06-05T08:41:59Z</time>
      </trkpt>
      <trkpt lat="42.80281" lon="-0.39818">
        <ele>1851.6364746094</ele>
        <time>2015-06-05T08:42:15Z</time>
      </trkpt>
      <trkpt lat="42.80278" lon="-0.39819">
        <ele>1850.6750488281</ele>
        <time>2015-06-05T08:42:43Z</time>
      </trkpt>
      <trkpt lat="42.80278" lon="-0.3982">
        <ele>1851.1557617188</ele>
        <time>2015-06-05T08:43:14Z</time>
      </trkpt>
      <trkpt lat="42.80279" lon="-0.39818">
        <ele>1851.1557617188</ele>
        <time>2015-06-05T08:43:28Z</time>
      </trkpt>
      <trkpt lat="42.80279" lon="-0.3982">
        <ele>1851.1557617188</ele>
        <time>2015-06-05T08:43:44Z</time>
      </trkpt>
      <trkpt lat="42.80279" lon="-0.39821">
        <ele>1850.6750488281</ele>
        <time>2015-06-05T08:44:08Z</time>
      </trkpt>
      <trkpt lat="42.80277" lon="-0.3982">
        <ele>1850.1945800781</ele>
        <time>2015-06-05T08:44:26Z</time>
      </trkpt>
      <trkpt lat="42.80277" lon="-0.39819">
        <ele>1851.1557617188</ele>
        <time>2015-06-05T08:45:12Z</time>
      </trkpt>
      <trkpt lat="42.80278" lon="-0.39817">
        <ele>1852.1171875</ele>
        <time>2015-06-05T08:45:24Z</time>
      </trkpt>
      <trkpt lat="42.80279" lon="-0.39817">
        <ele>1851.6364746094</ele>
        <time>2015-06-05T08:45:49Z</time>
      </trkpt>
      <trkpt lat="42.80278" lon="-0.39815">
        <ele>1852.1171875</ele>
        <time>2015-06-05T08:45:52Z</time>
      </trkpt>
      <trkpt lat="42.80275" lon="-0.39812">
        <ele>1851.1557617188</ele>
        <time>2015-06-05T08:45:56Z</time>
      </trkpt>
      <trkpt lat="42.80262" lon="-0.39802">
        <ele>1850.1945800781</ele>
        <time>2015-06-05T08:46:10Z</time>
      </trkpt>
      <trkpt lat="42.80258" lon="-0.39802">
        <ele>1850.6750488281</ele>
        <time>2015-06-05T08:46:14Z</time>
      </trkpt>
      <trkpt lat="42.8024" lon="-0.3982">
        <ele>1849.7138671875</ele>
        <time>2015-06-05T08:46:34Z</time>
      </trkpt>
      <trkpt lat="42.80236" lon="-0.39824">
        <ele>1849.7138671875</ele>
        <time>2015-06-05T08:46:48Z</time>
      </trkpt>
      <trkpt lat="42.80225" lon="-0.39833">
        <ele>1850.6750488281</ele>
        <time>2015-06-05T08:47:04Z</time>
      </trkpt>
      <trkpt lat="42.80215" lon="-0.39839">
        <ele>1851.1557617188</ele>
        <time>2015-06-05T08:47:16Z</time>
      </trkpt>
      <trkpt lat="42.80196" lon="-0.3985">
        <ele>1851.1557617188</ele>
        <time>2015-06-05T08:47:36Z</time>
      </trkpt>
      <trkpt lat="42.80179" lon="-0.39857">
        <ele>1851.1557617188</ele>
        <time>2015-06-05T08:47:57Z</time>
      </trkpt>
      <trkpt lat="42.80179" lon="-0.39857">
        <ele>1851.6364746094</ele>
        <time>2015-06-05T08:48:16Z</time>
      </trkpt>
      <trkpt lat="42.80179" lon="-0.39855">
        <ele>1851.1557617188</ele>
        <time>2015-06-05T08:48:37Z</time>
      </trkpt>
      <trkpt lat="42.80179" lon="-0.39855">
        <ele>1850.1945800781</ele>
        <time>2015-06-05T08:48:51Z</time>
      </trkpt>
      <trkpt lat="42.80178" lon="-0.39855">
        <ele>1851.1557617188</ele>
        <time>2015-06-05T08:49:45Z</time>
      </trkpt>
      <trkpt lat="42.80177" lon="-0.39854">
        <ele>1848.2717285156</ele>
        <time>2015-06-05T08:51:10Z</time>
      </trkpt>
      <trkpt lat="42.80177" lon="-0.39854">
        <ele>1849.7138671875</ele>
        <time>2015-06-05T08:51:13Z</time>
      </trkpt>
      <trkpt lat="42.80177" lon="-0.39854">
        <ele>1850.1945800781</ele>
        <time>2015-06-05T08:52:28Z</time>
      </trkpt>
      <trkpt lat="42.80179" lon="-0.39855">
        <ele>1850.6750488281</ele>
        <time>2015-06-05T08:52:44Z</time>
      </trkpt>
      <trkpt lat="42.80178" lon="-0.39855">
        <ele>1851.6364746094</ele>
        <time>2015-06-05T08:53:14Z</time>
      </trkpt>
      <trkpt lat="42.80178" lon="-0.39858">
        <ele>1850.6750488281</ele>
        <time>2015-06-05T08:53:38Z</time>
      </trkpt>
      <trkpt lat="42.80177" lon="-0.39861">
        <ele>1850.6750488281</ele>
        <time>2015-06-05T08:54:00Z</time>
      </trkpt>
      <trkpt lat="42.80179" lon="-0.39857">
        <ele>1851.1557617188</ele>
        <time>2015-06-05T08:54:28Z</time>
      </trkpt>
      <trkpt lat="42.8018" lon="-0.39856">
        <ele>1852.1171875</ele>
        <time>2015-06-05T08:54:46Z</time>
      </trkpt>
      <trkpt lat="42.8018" lon="-0.39856">
        <ele>1852.1171875</ele>
        <time>2015-06-05T08:54:47Z</time>
      </trkpt>
      <trkpt lat="42.80179" lon="-0.39856">
        <ele>1851.1557617188</ele>
        <time>2015-06-05T08:55:09Z</time>
      </trkpt>
      <trkpt lat="42.80178" lon="-0.39856">
        <ele>1850.1945800781</ele>
        <time>2015-06-05T08:55:41Z</time>
      </trkpt>
      <trkpt lat="42.8018" lon="-0.39856">
        <ele>1850.6750488281</ele>
        <time>2015-06-05T08:55:58Z</time>
      </trkpt>
      <trkpt lat="42.80183" lon="-0.39859">
        <ele>1850.1945800781</ele>
        <time>2015-06-05T08:57:27Z</time>
      </trkpt>
      <trkpt lat="42.80194" lon="-0.39873">
        <ele>1849.2331542969</ele>
        <time>2015-06-05T08:57:46Z</time>
      </trkpt>
      <trkpt lat="42.80194" lon="-0.39874">
        <ele>1848.2717285156</ele>
        <time>2015-06-05T08:57:47Z</time>
      </trkpt>
      <trkpt lat="42.80204" lon="-0.39881">
        <ele>1849.2331542969</ele>
        <time>2015-06-05T08:58:00Z</time>
      </trkpt>
      <trkpt lat="42.8022" lon="-0.39883">
        <ele>1850.6750488281</ele>
        <time>2015-06-05T08:58:18Z</time>
      </trkpt>
      <trkpt lat="42.80235" lon="-0.39881">
        <ele>1853.0786132812</ele>
        <time>2015-06-05T08:58:35Z</time>
      </trkpt>
      <trkpt lat="42.8024" lon="-0.39882">
        <ele>1853.0786132812</ele>
        <time>2015-06-05T08:58:41Z</time>
      </trkpt>
      <trkpt lat="42.80255" lon="-0.39902">
        <ele>1852.1171875</ele>
        <time>2015-06-05T08:59:02Z</time>
      </trkpt>
      <trkpt lat="42.80267" lon="-0.39918">
        <ele>1851.6364746094</ele>
        <time>2015-06-05T08:59:19Z</time>
      </trkpt>
      <trkpt lat="42.80274" lon="-0.39921">
        <ele>1851.1557617188</ele>
        <time>2015-06-05T08:59:27Z</time>
      </trkpt>
      <trkpt lat="42.80285" lon="-0.39912">
        <ele>1851.6364746094</ele>
        <time>2015-06-05T08:59:43Z</time>
      </trkpt>
      <trkpt lat="42.8029" lon="-0.39909">
        <ele>1851.1557617188</ele>
        <time>2015-06-05T09:00:12Z</time>
      </trkpt>
      <trkpt lat="42.80302" lon="-0.39896">
        <ele>1850.6750488281</ele>
        <time>2015-06-05T09:00:28Z</time>
      </trkpt>
      <trkpt lat="42.80316" lon="-0.39879">
        <ele>1849.7138671875</ele>
        <time>2015-06-05T09:00:46Z</time>
      </trkpt>
      <trkpt lat="42.8033" lon="-0.39862">
        <ele>1849.7138671875</ele>
        <time>2015-06-05T09:01:03Z</time>
      </trkpt>
      <trkpt lat="42.80352" lon="-0.39846">
        <ele>1849.7138671875</ele>
        <time>2015-06-05T09:01:25Z</time>
      </trkpt>
      <trkpt lat="42.80375" lon="-0.39837">
        <ele>1848.7524414062</ele>
        <time>2015-06-05T09:01:47Z</time>
      </trkpt>
      <trkpt lat="42.80395" lon="-0.39829">
        <ele>1848.7524414062</ele>
        <time>2015-06-05T09:02:05Z</time>
      </trkpt>
      <trkpt lat="42.80417" lon="-0.39819">
        <ele>1848.7524414062</ele>
        <time>2015-06-05T09:02:25Z</time>
      </trkpt>
      <trkpt lat="42.80435" lon="-0.3981">
        <ele>1848.2717285156</ele>
        <time>2015-06-05T09:02:42Z</time>
      </trkpt>
      <trkpt lat="42.8045" lon="-0.39803">
        <ele>1848.2717285156</ele>
        <time>2015-06-05T09:02:57Z</time>
      </trkpt>
      <trkpt lat="42.80455" lon="-0.39802">
        <ele>1848.2717285156</ele>
        <time>2015-06-05T09:03:01Z</time>
      </trkpt>
      <trkpt lat="42.80467" lon="-0.39798">
        <ele>1847.7912597656</ele>
        <time>2015-06-05T09:03:19Z</time>
      </trkpt>
      <trkpt lat="42.80473" lon="-0.39796">
        <ele>1847.7912597656</ele>
        <time>2015-06-05T09:03:35Z</time>
      </trkpt>
      <trkpt lat="42.80478" lon="-0.39794">
        <ele>1847.310546875</ele>
        <time>2015-06-05T09:03:54Z</time>
      </trkpt>
      <trkpt lat="42.80481" lon="-0.39793">
        <ele>1847.310546875</ele>
        <time>2015-06-05T09:03:57Z</time>
      </trkpt>
      <trkpt lat="42.80489" lon="-0.39788">
        <ele>1847.7912597656</ele>
        <time>2015-06-05T09:04:09Z</time>
      </trkpt>
      <trkpt lat="42.80505" lon="-0.39785">
        <ele>1847.310546875</ele>
        <time>2015-06-05T09:04:25Z</time>
      </trkpt>
      <trkpt lat="42.80515" lon="-0.3978">
        <ele>1846.8298339844</ele>
        <time>2015-06-05T09:04:38Z</time>
      </trkpt>
      <trkpt lat="42.80527" lon="-0.39775">
        <ele>1847.310546875</ele>
        <time>2015-06-05T09:04:50Z</time>
      </trkpt>
      <trkpt lat="42.80531" lon="-0.39775">
        <ele>1846.3493652344</ele>
        <time>2015-06-05T09:04:54Z</time>
      </trkpt>
      <trkpt lat="42.80552" lon="-0.39779">
        <ele>1846.3493652344</ele>
        <time>2015-06-05T09:05:14Z</time>
      </trkpt>
      <trkpt lat="42.80571" lon="-0.39786">
        <ele>1845.3879394531</ele>
        <time>2015-06-05T09:05:33Z</time>
      </trkpt>
      <trkpt lat="42.80578" lon="-0.39785">
        <ele>1844.9072265625</ele>
        <time>2015-06-05T09:05:40Z</time>
      </trkpt>
      <trkpt lat="42.80581" lon="-0.39786">
        <ele>1844.4265136719</ele>
        <time>2015-06-05T09:05:44Z</time>
      </trkpt>
      <trkpt lat="42.80599" lon="-0.39779">
        <ele>1842.9846191406</ele>
        <time>2015-06-05T09:06:03Z</time>
      </trkpt>
      <trkpt lat="42.80603" lon="-0.39775">
        <ele>1842.0234375</ele>
        <time>2015-06-05T09:06:09Z</time>
      </trkpt>
      <trkpt lat="42.80604" lon="-0.39771">
        <ele>1843.9460449219</ele>
        <time>2015-06-05T09:06:12Z</time>
      </trkpt>
      <trkpt lat="42.80607" lon="-0.39766">
        <ele>1842.9846191406</ele>
        <time>2015-06-05T09:06:17Z</time>
      </trkpt>
      <trkpt lat="42.80615" lon="-0.39753">
        <ele>1843.9460449219</ele>
        <time>2015-06-05T09:06:33Z</time>
      </trkpt>
      <trkpt lat="42.80616" lon="-0.39754">
        <ele>1843.9460449219</ele>
        <time>2015-06-05T09:06:34Z</time>
      </trkpt>
      <trkpt lat="42.80622" lon="-0.39746">
        <ele>1842.9846191406</ele>
        <time>2015-06-05T09:06:43Z</time>
      </trkpt>
      <trkpt lat="42.80623" lon="-0.39745">
        <ele>1842.0234375</ele>
        <time>2015-06-05T09:06:45Z</time>
      </trkpt>
      <trkpt lat="42.8063" lon="-0.39734">
        <ele>1842.0234375</ele>
        <time>2015-06-05T09:06:56Z</time>
      </trkpt>
      <trkpt lat="42.80635" lon="-0.39732">
        <ele>1841.5427246094</ele>
        <time>2015-06-05T09:07:01Z</time>
      </trkpt>
      <trkpt lat="42.80645" lon="-0.39727">
        <ele>1840.5812988281</ele>
        <time>2015-06-05T09:07:10Z</time>
      </trkpt>
      <trkpt lat="42.80666" lon="-0.39721">
        <ele>1840.5812988281</ele>
        <time>2015-06-05T09:07:29Z</time>
      </trkpt>
      <trkpt lat="42.80669" lon="-0.39719">
        <ele>1841.0620117188</ele>
        <time>2015-06-05T09:07:32Z</time>
      </trkpt>
      <trkpt lat="42.80682" lon="-0.39726">
        <ele>1840.1008300781</ele>
        <time>2015-06-05T09:07:45Z</time>
      </trkpt>
      <trkpt lat="42.80687" lon="-0.39729">
        <ele>1839.6201171875</ele>
        <time>2015-06-05T09:07:50Z</time>
      </trkpt>
      <trkpt lat="42.80698" lon="-0.39741">
        <ele>1838.6589355469</ele>
        <time>2015-06-05T09:08:03Z</time>
      </trkpt>
      <trkpt lat="42.80698" lon="-0.39749">
        <ele>1838.6589355469</ele>
        <time>2015-06-05T09:08:08Z</time>
      </trkpt>
      <trkpt lat="42.80707" lon="-0.39752">
        <ele>1839.1394042969</ele>
        <time>2015-06-05T09:08:16Z</time>
      </trkpt>
      <trkpt lat="42.80715" lon="-0.39759">
        <ele>1838.1782226562</ele>
        <time>2015-06-05T09:08:25Z</time>
      </trkpt>
      <trkpt lat="42.80718" lon="-0.39762">
        <ele>1838.6589355469</ele>
        <time>2015-06-05T09:08:29Z</time>
      </trkpt>
      <trkpt lat="42.80738" lon="-0.3976">
        <ele>1837.6975097656</ele>
        <time>2015-06-05T09:08:46Z</time>
      </trkpt>
      <trkpt lat="42.80749" lon="-0.39764">
        <ele>1837.6975097656</ele>
        <time>2015-06-05T09:09:00Z</time>
      </trkpt>
      <trkpt lat="42.80749" lon="-0.39763">
        <ele>1837.6975097656</ele>
        <time>2015-06-05T09:09:01Z</time>
      </trkpt>
      <trkpt lat="42.80753" lon="-0.3976">
        <ele>1838.1782226562</ele>
        <time>2015-06-05T09:09:05Z</time>
      </trkpt>
      <trkpt lat="42.80757" lon="-0.39759">
        <ele>1838.1782226562</ele>
        <time>2015-06-05T09:09:10Z</time>
      </trkpt>
      <trkpt lat="42.80776" lon="-0.39759">
        <ele>1837.216796875</ele>
        <time>2015-06-05T09:09:28Z</time>
      </trkpt>
      <trkpt lat="42.80778" lon="-0.39759">
        <ele>1837.216796875</ele>
        <time>2015-06-05T09:09:31Z</time>
      </trkpt>
      <trkpt lat="42.80783" lon="-0.39758">
        <ele>1837.216796875</ele>
        <time>2015-06-05T09:09:35Z</time>
      </trkpt>
      <trkpt lat="42.80793" lon="-0.39754">
        <ele>1836.7360839844</ele>
        <time>2015-06-05T09:09:45Z</time>
      </trkpt>
      <trkpt lat="42.80802" lon="-0.39755">
        <ele>1836.2556152344</ele>
        <time>2015-06-05T09:09:53Z</time>
      </trkpt>
      <trkpt lat="42.80824" lon="-0.39749">
        <ele>1834.8134765625</ele>
        <time>2015-06-05T09:10:13Z</time>
      </trkpt>
      <trkpt lat="42.80844" lon="-0.39749">
        <ele>1834.3327636719</ele>
        <time>2015-06-05T09:10:31Z</time>
      </trkpt>
      <trkpt lat="42.80861" lon="-0.39757">
        <ele>1834.3327636719</ele>
        <time>2015-06-05T09:10:48Z</time>
      </trkpt>
      <trkpt lat="42.80864" lon="-0.39758">
        <ele>1832.890625</ele>
        <time>2015-06-05T09:10:51Z</time>
      </trkpt>
      <trkpt lat="42.80866" lon="-0.39758">
        <ele>1832.41015625</ele>
        <time>2015-06-05T09:10:53Z</time>
      </trkpt>
      <trkpt lat="42.80884" lon="-0.39764">
        <ele>1831.4487304688</ele>
        <time>2015-06-05T09:11:11Z</time>
      </trkpt>
      <trkpt lat="42.80886" lon="-0.39765">
        <ele>1830.9682617188</ele>
        <time>2015-06-05T09:11:13Z</time>
      </trkpt>
      <trkpt lat="42.8089" lon="-0.39768">
        <ele>1830.9682617188</ele>
        <time>2015-06-05T09:11:17Z</time>
      </trkpt>
      <trkpt lat="42.80912" lon="-0.39777">
        <ele>1830.4875488281</ele>
        <time>2015-06-05T09:11:37Z</time>
      </trkpt>
      <trkpt lat="42.80922" lon="-0.3978">
        <ele>1830.0068359375</ele>
        <time>2015-06-05T09:11:47Z</time>
      </trkpt>
      <trkpt lat="42.80924" lon="-0.39782">
        <ele>1830.4875488281</ele>
        <time>2015-06-05T09:11:49Z</time>
      </trkpt>
      <trkpt lat="42.8094" lon="-0.39791">
        <ele>1829.5261230469</ele>
        <time>2015-06-05T09:12:06Z</time>
      </trkpt>
      <trkpt lat="42.80955" lon="-0.39793">
        <ele>1829.5261230469</ele>
        <time>2015-06-05T09:12:21Z</time>
      </trkpt>
      <trkpt lat="42.80958" lon="-0.39792">
        <ele>1829.0454101562</ele>
        <time>2015-06-05T09:12:24Z</time>
      </trkpt>
      <trkpt lat="42.80965" lon="-0.39791">
        <ele>1828.5649414062</ele>
        <time>2015-06-05T09:12:31Z</time>
      </trkpt>
      <trkpt lat="42.80969" lon="-0.39788">
        <ele>1827.603515625</ele>
        <time>2015-06-05T09:12:36Z</time>
      </trkpt>
      <trkpt lat="42.8099" lon="-0.39786">
        <ele>1828.0842285156</ele>
        <time>2015-06-05T09:12:56Z</time>
      </trkpt>
      <trkpt lat="42.81007" lon="-0.39788">
        <ele>1827.123046875</ele>
        <time>2015-06-05T09:13:12Z</time>
      </trkpt>
      <trkpt lat="42.81027" lon="-0.39785">
        <ele>1826.1616210938</ele>
        <time>2015-06-05T09:13:31Z</time>
      </trkpt>
      <trkpt lat="42.81045" lon="-0.39789">
        <ele>1825.2001953125</ele>
        <time>2015-06-05T09:13:48Z</time>
      </trkpt>
      <trkpt lat="42.81047" lon="-0.39787">
        <ele>1824.7197265625</ele>
        <time>2015-06-05T09:13:51Z</time>
      </trkpt>
      <trkpt lat="42.81057" lon="-0.39783">
        <ele>1824.7197265625</ele>
        <time>2015-06-05T09:14:03Z</time>
      </trkpt>
      <trkpt lat="42.81063" lon="-0.39784">
        <ele>1824.7197265625</ele>
        <time>2015-06-05T09:14:09Z</time>
      </trkpt>
      <trkpt lat="42.81075" lon="-0.39781">
        <ele>1824.2390136719</ele>
        <time>2015-06-05T09:14:20Z</time>
      </trkpt>
      <trkpt lat="42.81092" lon="-0.39778">
        <ele>1825.2001953125</ele>
        <time>2015-06-05T09:14:36Z</time>
      </trkpt>
      <trkpt lat="42.81105" lon="-0.39776">
        <ele>1823.2778320312</ele>
        <time>2015-06-05T09:14:49Z</time>
      </trkpt>
      <trkpt lat="42.81115" lon="-0.39775">
        <ele>1821.3549804688</ele>
        <time>2015-06-05T09:15:03Z</time>
      </trkpt>
      <trkpt lat="42.81117" lon="-0.39777">
        <ele>1821.3549804688</ele>
        <time>2015-06-05T09:15:15Z</time>
      </trkpt>
      <trkpt lat="42.81119" lon="-0.39779">
        <ele>1822.31640625</ele>
        <time>2015-06-05T09:15:29Z</time>
      </trkpt>
      <trkpt lat="42.81119" lon="-0.39779">
        <ele>1822.7971191406</ele>
        <time>2015-06-05T09:15:43Z</time>
      </trkpt>
      <trkpt lat="42.81119" lon="-0.39777">
        <ele>1823.2778320312</ele>
        <time>2015-06-05T09:16:04Z</time>
      </trkpt>
      <trkpt lat="42.81118" lon="-0.39776">
        <ele>1823.2778320312</ele>
        <time>2015-06-05T09:16:21Z</time>
      </trkpt>
      <trkpt lat="42.81117" lon="-0.39775">
        <ele>1823.7583007812</ele>
        <time>2015-06-05T09:16:33Z</time>
      </trkpt>
      <trkpt lat="42.81114" lon="-0.39774">
        <ele>1822.7971191406</ele>
        <time>2015-06-05T09:16:53Z</time>
      </trkpt>
      <trkpt lat="42.81113" lon="-0.39775">
        <ele>1820.8745117188</ele>
        <time>2015-06-05T09:17:04Z</time>
      </trkpt>
      <trkpt lat="42.81117" lon="-0.39775">
        <ele>1821.8356933594</ele>
        <time>2015-06-05T09:17:15Z</time>
      </trkpt>
      <trkpt lat="42.81117" lon="-0.39775">
        <ele>1823.7583007812</ele>
        <time>2015-06-05T09:17:21Z</time>
      </trkpt>
      <trkpt lat="42.81116" lon="-0.39775">
        <ele>1822.7971191406</ele>
        <time>2015-06-05T09:17:47Z</time>
      </trkpt>
      <trkpt lat="42.81117" lon="-0.39775">
        <ele>1823.2778320312</ele>
        <time>2015-06-05T09:18:14Z</time>
      </trkpt>
      <trkpt lat="42.81117" lon="-0.39775">
        <ele>1821.8356933594</ele>
        <time>2015-06-05T09:18:20Z</time>
      </trkpt>
      <trkpt lat="42.81117" lon="-0.39775">
        <ele>1824.2390136719</ele>
        <time>2015-06-05T09:18:30Z</time>
      </trkpt>
      <trkpt lat="42.81118" lon="-0.39775">
        <ele>1821.8356933594</ele>
        <time>2015-06-05T09:18:52Z</time>
      </trkpt>
      <trkpt lat="42.81121" lon="-0.39778">
        <ele>1820.3937988281</ele>
        <time>2015-06-05T09:19:01Z</time>
      </trkpt>
      <trkpt lat="42.81132" lon="-0.39777">
        <ele>1820.8745117188</ele>
        <time>2015-06-05T09:19:14Z</time>
      </trkpt>
      <trkpt lat="42.81133" lon="-0.39776">
        <ele>1818.9516601562</ele>
        <time>2015-06-05T09:19:16Z</time>
      </trkpt>
      <trkpt lat="42.81136" lon="-0.39774">
        <ele>1820.3937988281</ele>
        <time>2015-06-05T09:19:20Z</time>
      </trkpt>
      <trkpt lat="42.8115" lon="-0.39773">
        <ele>1819.9128417969</ele>
        <time>2015-06-05T09:19:35Z</time>
      </trkpt>
      <trkpt lat="42.81151" lon="-0.39773">
        <ele>1819.4323730469</ele>
        <time>2015-06-05T09:19:36Z</time>
      </trkpt>
      <trkpt lat="42.81159" lon="-0.39775">
        <ele>1821.3549804688</ele>
        <time>2015-06-05T09:19:46Z</time>
      </trkpt>
      <trkpt lat="42.8116" lon="-0.39774">
        <ele>1820.3937988281</ele>
        <time>2015-06-05T09:20:02Z</time>
      </trkpt>
      <trkpt lat="42.81169" lon="-0.39773">
        <ele>1820.8745117188</ele>
        <time>2015-06-05T09:20:20Z</time>
      </trkpt>
      <trkpt lat="42.8118" lon="-0.39775">
        <ele>1821.3549804688</ele>
        <time>2015-06-05T09:20:34Z</time>
      </trkpt>
      <trkpt lat="42.81193" lon="-0.39776">
        <ele>1820.8745117188</ele>
        <time>2015-06-05T09:20:49Z</time>
      </trkpt>
      <trkpt lat="42.812" lon="-0.39773">
        <ele>1820.3937988281</ele>
        <time>2015-06-05T09:20:57Z</time>
      </trkpt>
      <trkpt lat="42.81206" lon="-0.3977">
        <ele>1819.9128417969</ele>
        <time>2015-06-05T09:21:05Z</time>
      </trkpt>
      <trkpt lat="42.81217" lon="-0.39766">
        <ele>1815.5871582031</ele>
        <time>2015-06-05T09:21:16Z</time>
      </trkpt>
      <trkpt lat="42.81218" lon="-0.39766">
        <ele>1816.0676269531</ele>
        <time>2015-06-05T09:21:17Z</time>
      </trkpt>
      <trkpt lat="42.81237" lon="-0.39762">
        <ele>1813.6643066406</ele>
        <time>2015-06-05T09:21:37Z</time>
      </trkpt>
      <trkpt lat="42.8125" lon="-0.39762">
        <ele>1813.6643066406</ele>
        <time>2015-06-05T09:21:50Z</time>
      </trkpt>
      <trkpt lat="42.81272" lon="-0.39762">
        <ele>1811.7419433594</ele>
        <time>2015-06-05T09:22:11Z</time>
      </trkpt>
      <trkpt lat="42.81296" lon="-0.3976">
        <ele>1808.3771972656</ele>
        <time>2015-06-05T09:22:34Z</time>
      </trkpt>
      <trkpt lat="42.81318" lon="-0.39757">
        <ele>1809.3386230469</ele>
        <time>2015-06-05T09:22:54Z</time>
      </trkpt>
      <trkpt lat="42.81336" lon="-0.39756">
        <ele>1809.3386230469</ele>
        <time>2015-06-05T09:23:12Z</time>
      </trkpt>
      <trkpt lat="42.81339" lon="-0.39754">
        <ele>1810.2998046875</ele>
        <time>2015-06-05T09:23:15Z</time>
      </trkpt>
      <trkpt lat="42.81354" lon="-0.39751">
        <ele>1807.416015625</ele>
        <time>2015-06-05T09:23:30Z</time>
      </trkpt>
      <trkpt lat="42.8136" lon="-0.3975">
        <ele>1806.9353027344</ele>
        <time>2015-06-05T09:23:37Z</time>
      </trkpt>
      <trkpt lat="42.81371" lon="-0.3975">
        <ele>1805.9738769531</ele>
        <time>2015-06-05T09:23:49Z</time>
      </trkpt>
      <trkpt lat="42.81384" lon="-0.39753">
        <ele>1804.0515136719</ele>
        <time>2015-06-05T09:24:07Z</time>
      </trkpt>
      <trkpt lat="42.81384" lon="-0.39754">
        <ele>1804.0515136719</ele>
        <time>2015-06-05T09:24:08Z</time>
      </trkpt>
      <trkpt lat="42.81391" lon="-0.39756">
        <ele>1803.5705566406</ele>
        <time>2015-06-05T09:24:16Z</time>
      </trkpt>
      <trkpt lat="42.81407" lon="-0.39751">
        <ele>1801.6479492188</ele>
        <time>2015-06-05T09:24:32Z</time>
      </trkpt>
      <trkpt lat="42.81423" lon="-0.39739">
        <ele>1800.6865234375</ele>
        <time>2015-06-05T09:24:49Z</time>
      </trkpt>
      <trkpt lat="42.81436" lon="-0.39724">
        <ele>1801.1672363281</ele>
        <time>2015-06-05T09:25:06Z</time>
      </trkpt>
      <trkpt lat="42.81438" lon="-0.39721">
        <ele>1800.2060546875</ele>
        <time>2015-06-05T09:25:10Z</time>
      </trkpt>
      <trkpt lat="42.8145" lon="-0.39713">
        <ele>1799.2446289062</ele>
        <time>2015-06-05T09:25:26Z</time>
      </trkpt>
      <trkpt lat="42.81468" lon="-0.39705">
        <ele>1798.283203125</ele>
        <time>2015-06-05T09:25:46Z</time>
      </trkpt>
      <trkpt lat="42.81484" lon="-0.39703">
        <ele>1796.3608398438</ele>
        <time>2015-06-05T09:26:03Z</time>
      </trkpt>
      <trkpt lat="42.81501" lon="-0.39692">
        <ele>1796.8413085938</ele>
        <time>2015-06-05T09:26:22Z</time>
      </trkpt>
      <trkpt lat="42.81515" lon="-0.3968">
        <ele>1797.3220214844</ele>
        <time>2015-06-05T09:26:40Z</time>
      </trkpt>
      <trkpt lat="42.81524" lon="-0.39675">
        <ele>1796.8413085938</ele>
        <time>2015-06-05T09:26:57Z</time>
      </trkpt>
      <trkpt lat="42.81527" lon="-0.39674">
        <ele>1796.3608398438</ele>
        <time>2015-06-05T09:27:00Z</time>
      </trkpt>
      <trkpt lat="42.81547" lon="-0.39677">
        <ele>1795.3994140625</ele>
        <time>2015-06-05T09:27:21Z</time>
      </trkpt>
      <trkpt lat="42.8156" lon="-0.39679">
        <ele>1795.3994140625</ele>
        <time>2015-06-05T09:27:36Z</time>
      </trkpt>
      <trkpt lat="42.81566" lon="-0.39677">
        <ele>1794.9187011719</ele>
        <time>2015-06-05T09:27:43Z</time>
      </trkpt>
      <trkpt lat="42.81576" lon="-0.39667">
        <ele>1792.515625</ele>
        <time>2015-06-05T09:28:01Z</time>
      </trkpt>
      <trkpt lat="42.81583" lon="-0.39661">
        <ele>1791.0734863281</ele>
        <time>2015-06-05T09:28:16Z</time>
      </trkpt>
      <trkpt lat="42.81589" lon="-0.39657">
        <ele>1790.1123046875</ele>
        <time>2015-06-05T09:28:26Z</time>
      </trkpt>
      <trkpt lat="42.81593" lon="-0.39656">
        <ele>1790.1123046875</ele>
        <time>2015-06-05T09:28:30Z</time>
      </trkpt>
      <trkpt lat="42.81596" lon="-0.3965">
        <ele>1790.5927734375</ele>
        <time>2015-06-05T09:28:37Z</time>
      </trkpt>
      <trkpt lat="42.81602" lon="-0.39647">
        <ele>1790.5927734375</ele>
        <time>2015-06-05T09:28:43Z</time>
      </trkpt>
      <trkpt lat="42.81609" lon="-0.39638">
        <ele>1789.1508789062</ele>
        <time>2015-06-05T09:28:52Z</time>
      </trkpt>
      <trkpt lat="42.81611" lon="-0.39636">
        <ele>1789.6315917969</ele>
        <time>2015-06-05T09:28:54Z</time>
      </trkpt>
      <trkpt lat="42.81618" lon="-0.39633">
        <ele>1789.6315917969</ele>
        <time>2015-06-05T09:29:02Z</time>
      </trkpt>
      <trkpt lat="42.81633" lon="-0.39633">
        <ele>1790.1123046875</ele>
        <time>2015-06-05T09:29:17Z</time>
      </trkpt>
      <trkpt lat="42.81651" lon="-0.39629">
        <ele>1789.1508789062</ele>
        <time>2015-06-05T09:29:36Z</time>
      </trkpt>
      <trkpt lat="42.81656" lon="-0.39613">
        <ele>1786.7473144531</ele>
        <time>2015-06-05T09:29:49Z</time>
      </trkpt>
      <trkpt lat="42.81664" lon="-0.39613">
        <ele>1783.3828125</ele>
        <time>2015-06-05T09:30:05Z</time>
      </trkpt>
      <trkpt lat="42.81668" lon="-0.39628">
        <ele>1780.0183105469</ele>
        <time>2015-06-05T09:30:20Z</time>
      </trkpt>
      <trkpt lat="42.81678" lon="-0.3962">
        <ele>1777.1345214844</ele>
        <time>2015-06-05T09:30:35Z</time>
      </trkpt>
      <trkpt lat="42.81677" lon="-0.39608">
        <ele>1776.1730957031</ele>
        <time>2015-06-05T09:30:49Z</time>
      </trkpt>
      <trkpt lat="42.81683" lon="-0.39598">
        <ele>1773.2893066406</ele>
        <time>2015-06-05T09:31:02Z</time>
      </trkpt>
      <trkpt lat="42.81684" lon="-0.39596">
        <ele>1772.80859375</ele>
        <time>2015-06-05T09:31:05Z</time>
      </trkpt>
      <trkpt lat="42.8169" lon="-0.39588">
        <ele>1770.8857421875</ele>
        <time>2015-06-05T09:31:16Z</time>
      </trkpt>
      <trkpt lat="42.81705" lon="-0.39569">
        <ele>1768.482421875</ele>
        <time>2015-06-05T09:31:36Z</time>
      </trkpt>
      <trkpt lat="42.81708" lon="-0.39564">
        <ele>1768.0017089844</ele>
        <time>2015-06-05T09:31:41Z</time>
      </trkpt>
      <trkpt lat="42.81717" lon="-0.39554">
        <ele>1767.0405273438</ele>
        <time>2015-06-05T09:31:57Z</time>
      </trkpt>
      <trkpt lat="42.81728" lon="-0.39555">
        <ele>1766.5598144531</ele>
        <time>2015-06-05T09:32:09Z</time>
      </trkpt>
      <trkpt lat="42.81737" lon="-0.39551">
        <ele>1763.67578125</ele>
        <time>2015-06-05T09:32:20Z</time>
      </trkpt>
      <trkpt lat="42.81738" lon="-0.39551">
        <ele>1763.67578125</ele>
        <time>2015-06-05T09:32:21Z</time>
      </trkpt>
      <trkpt lat="42.81751" lon="-0.39543">
        <ele>1759.8305664062</ele>
        <time>2015-06-05T09:32:36Z</time>
      </trkpt>
      <trkpt lat="42.8176" lon="-0.39533">
        <ele>1757.4274902344</ele>
        <time>2015-06-05T09:32:51Z</time>
      </trkpt>
      <trkpt lat="42.81763" lon="-0.39541">
        <ele>1756.4660644531</ele>
        <time>2015-06-05T09:33:01Z</time>
      </trkpt>
      <trkpt lat="42.81763" lon="-0.39569">
        <ele>1755.0239257812</ele>
        <time>2015-06-05T09:33:22Z</time>
      </trkpt>
      <trkpt lat="42.81765" lon="-0.39579">
        <ele>1749.7368164062</ele>
        <time>2015-06-05T09:33:32Z</time>
      </trkpt>
      <trkpt lat="42.81767" lon="-0.39575">
        <ele>1749.2561035156</ele>
        <time>2015-06-05T09:33:36Z</time>
      </trkpt>
      <trkpt lat="42.81777" lon="-0.3956">
        <ele>1747.3334960938</ele>
        <time>2015-06-05T09:33:54Z</time>
      </trkpt>
      <trkpt lat="42.81784" lon="-0.39542">
        <ele>1744.9301757812</ele>
        <time>2015-06-05T09:34:11Z</time>
      </trkpt>
      <trkpt lat="42.81783" lon="-0.39539">
        <ele>1744.9301757812</ele>
        <time>2015-06-05T09:34:13Z</time>
      </trkpt>
      <trkpt lat="42.81792" lon="-0.39534">
        <ele>1743.0075683594</ele>
        <time>2015-06-05T09:34:25Z</time>
      </trkpt>
      <trkpt lat="42.81799" lon="-0.39524">
        <ele>1741.5656738281</ele>
        <time>2015-06-05T09:34:35Z</time>
      </trkpt>
      <trkpt lat="42.8181" lon="-0.39515">
        <ele>1738.681640625</ele>
        <time>2015-06-05T09:34:52Z</time>
      </trkpt>
      <trkpt lat="42.8181" lon="-0.3952">
        <ele>1737.7202148438</ele>
        <time>2015-06-05T09:34:59Z</time>
      </trkpt>
      <trkpt lat="42.81803" lon="-0.39536">
        <ele>1735.3168945312</ele>
        <time>2015-06-05T09:35:11Z</time>
      </trkpt>
      <trkpt lat="42.81804" lon="-0.39537">
        <ele>1735.3168945312</ele>
        <time>2015-06-05T09:35:15Z</time>
      </trkpt>
      <trkpt lat="42.8182" lon="-0.3952">
        <ele>1732.4331054688</ele>
        <time>2015-06-05T09:35:36Z</time>
      </trkpt>
      <trkpt lat="42.8183" lon="-0.39512">
        <ele>1729.5490722656</ele>
        <time>2015-06-05T09:35:50Z</time>
      </trkpt>
      <trkpt lat="42.81839" lon="-0.39501">
        <ele>1729.068359375</ele>
        <time>2015-06-05T09:36:05Z</time>
      </trkpt>
      <trkpt lat="42.8184" lon="-0.39491">
        <ele>1729.068359375</ele>
        <time>2015-06-05T09:36:21Z</time>
      </trkpt>
      <trkpt lat="42.81839" lon="-0.39486">
        <ele>1727.6264648438</ele>
        <time>2015-06-05T09:36:47Z</time>
      </trkpt>
      <trkpt lat="42.81836" lon="-0.39476">
        <ele>1726.1845703125</ele>
        <time>2015-06-05T09:36:59Z</time>
      </trkpt>
      <trkpt lat="42.8184" lon="-0.39461">
        <ele>1723.3005371094</ele>
        <time>2015-06-05T09:37:11Z</time>
      </trkpt>
      <trkpt lat="42.81845" lon="-0.39453">
        <ele>1721.3776855469</ele>
        <time>2015-06-05T09:37:25Z</time>
      </trkpt>
      <trkpt lat="42.81849" lon="-0.39452">
        <ele>1719.4553222656</ele>
        <time>2015-06-05T09:37:37Z</time>
      </trkpt>
      <trkpt lat="42.81854" lon="-0.39455">
        <ele>1718.4938964844</ele>
        <time>2015-06-05T09:37:49Z</time>
      </trkpt>
      <trkpt lat="42.81853" lon="-0.3946">
        <ele>1717.0520019531</ele>
        <time>2015-06-05T09:37:53Z</time>
      </trkpt>
      <trkpt lat="42.81852" lon="-0.3947">
        <ele>1715.1293945312</ele>
        <time>2015-06-05T09:38:03Z</time>
      </trkpt>
      <trkpt lat="42.81854" lon="-0.39471">
        <ele>1713.6872558594</ele>
        <time>2015-06-05T09:38:08Z</time>
      </trkpt>
      <trkpt lat="42.81862" lon="-0.39462">
        <ele>1711.2841796875</ele>
        <time>2015-06-05T09:38:25Z</time>
      </trkpt>
      <trkpt lat="42.81861" lon="-0.39475">
        <ele>1708.880859375</ele>
        <time>2015-06-05T09:38:38Z</time>
      </trkpt>
      <trkpt lat="42.81865" lon="-0.39477">
        <ele>1706.9580078125</ele>
        <time>2015-06-05T09:38:47Z</time>
      </trkpt>
      <trkpt lat="42.81871" lon="-0.39461">
        <ele>1704.07421875</ele>
        <time>2015-06-05T09:39:03Z</time>
      </trkpt>
      <trkpt lat="42.81875" lon="-0.3945">
        <ele>1700.2290039062</ele>
        <time>2015-06-05T09:39:17Z</time>
      </trkpt>
      <trkpt lat="42.81878" lon="-0.39464">
        <ele>1697.3449707031</ele>
        <time>2015-06-05T09:39:31Z</time>
      </trkpt>
      <trkpt lat="42.81883" lon="-0.39458">
        <ele>1695.9030761719</ele>
        <time>2015-06-05T09:39:44Z</time>
      </trkpt>
      <trkpt lat="42.81884" lon="-0.3946">
        <ele>1694.4609375</ele>
        <time>2015-06-05T09:39:46Z</time>
      </trkpt>
      <trkpt lat="42.81884" lon="-0.3947">
        <ele>1693.98046875</ele>
        <time>2015-06-05T09:39:54Z</time>
      </trkpt>
      <trkpt lat="42.81884" lon="-0.39488">
        <ele>1690.6154785156</ele>
        <time>2015-06-05T09:40:10Z</time>
      </trkpt>
      <trkpt lat="42.81884" lon="-0.39491">
        <ele>1689.654296875</ele>
        <time>2015-06-05T09:40:12Z</time>
      </trkpt>
      <trkpt lat="42.81881" lon="-0.39506">
        <ele>1687.7316894531</ele>
        <time>2015-06-05T09:40:26Z</time>
      </trkpt>
      <trkpt lat="42.81878" lon="-0.39519">
        <ele>1686.2897949219</ele>
        <time>2015-06-05T09:40:36Z</time>
      </trkpt>
      <trkpt lat="42.81877" lon="-0.39523">
        <ele>1685.3283691406</ele>
        <time>2015-06-05T09:40:40Z</time>
      </trkpt>
      <trkpt lat="42.81879" lon="-0.39526">
        <ele>1682.4445800781</ele>
        <time>2015-06-05T09:40:52Z</time>
      </trkpt>
      <trkpt lat="42.81894" lon="-0.39512">
        <ele>1680.0412597656</ele>
        <time>2015-06-05T09:41:11Z</time>
      </trkpt>
      <trkpt lat="42.81903" lon="-0.39504">
        <ele>1678.1186523438</ele>
        <time>2015-06-05T09:41:23Z</time>
      </trkpt>
      <trkpt lat="42.81911" lon="-0.39497">
        <ele>1675.7150878906</ele>
        <time>2015-06-05T09:41:35Z</time>
      </trkpt>
      <trkpt lat="42.81914" lon="-0.39497">
        <ele>1674.2731933594</ele>
        <time>2015-06-05T09:41:56Z</time>
      </trkpt>
      <trkpt lat="42.81912" lon="-0.39511">
        <ele>1670.9086914062</ele>
        <time>2015-06-05T09:42:09Z</time>
      </trkpt>
      <trkpt lat="42.81911" lon="-0.39519">
        <ele>1669.466796875</ele>
        <time>2015-06-05T09:42:17Z</time>
      </trkpt>
      <trkpt lat="42.81908" lon="-0.3953">
        <ele>1668.0246582031</ele>
        <time>2015-06-05T09:42:26Z</time>
      </trkpt>
      <trkpt lat="42.81906" lon="-0.3954">
        <ele>1665.6215820312</ele>
        <time>2015-06-05T09:42:34Z</time>
      </trkpt>
      <trkpt lat="42.81907" lon="-0.39547">
        <ele>1663.6987304688</ele>
        <time>2015-06-05T09:42:49Z</time>
      </trkpt>
      <trkpt lat="42.81913" lon="-0.39545">
        <ele>1662.2568359375</ele>
        <time>2015-06-05T09:42:55Z</time>
      </trkpt>
      <trkpt lat="42.81923" lon="-0.39536">
        <ele>1659.3728027344</ele>
        <time>2015-06-05T09:43:10Z</time>
      </trkpt>
      <trkpt lat="42.81938" lon="-0.39523">
        <ele>1656.4887695312</ele>
        <time>2015-06-05T09:43:28Z</time>
      </trkpt>
      <trkpt lat="42.81945" lon="-0.39519">
        <ele>1655.046875</ele>
        <time>2015-06-05T09:43:42Z</time>
      </trkpt>
      <trkpt lat="42.81944" lon="-0.39532">
        <ele>1651.6823730469</ele>
        <time>2015-06-05T09:43:55Z</time>
      </trkpt>
      <trkpt lat="42.81957" lon="-0.39521">
        <ele>1648.3176269531</ele>
        <time>2015-06-05T09:44:11Z</time>
      </trkpt>
      <trkpt lat="42.81958" lon="-0.3952">
        <ele>1648.3176269531</ele>
        <time>2015-06-05T09:44:12Z</time>
      </trkpt>
      <trkpt lat="42.81966" lon="-0.39511">
        <ele>1646.3952636719</ele>
        <time>2015-06-05T09:44:23Z</time>
      </trkpt>
      <trkpt lat="42.81968" lon="-0.39522">
        <ele>1644.953125</ele>
        <time>2015-06-05T09:44:35Z</time>
      </trkpt>
      <trkpt lat="42.81966" lon="-0.39532">
        <ele>1641.5883789062</ele>
        <time>2015-06-05T09:44:42Z</time>
      </trkpt>
      <trkpt lat="42.81963" lon="-0.39555">
        <ele>1639.6657714844</ele>
        <time>2015-06-05T09:45:01Z</time>
      </trkpt>
      <trkpt lat="42.81964" lon="-0.39568">
        <ele>1636.3012695312</ele>
        <time>2015-06-05T09:45:12Z</time>
      </trkpt>
      <trkpt lat="42.81961" lon="-0.39586">
        <ele>1633.4172363281</ele>
        <time>2015-06-05T09:45:28Z</time>
      </trkpt>
      <trkpt lat="42.81953" lon="-0.396">
        <ele>1630.5334472656</ele>
        <time>2015-06-05T09:45:45Z</time>
      </trkpt>
      <trkpt lat="42.81952" lon="-0.39609">
        <ele>1629.5720214844</ele>
        <time>2015-06-05T09:45:52Z</time>
      </trkpt>
      <trkpt lat="42.81954" lon="-0.39623">
        <ele>1627.1687011719</ele>
        <time>2015-06-05T09:46:05Z</time>
      </trkpt>
      <trkpt lat="42.8195" lon="-0.39639">
        <ele>1624.7653808594</ele>
        <time>2015-06-05T09:46:20Z</time>
      </trkpt>
      <trkpt lat="42.81947" lon="-0.39651">
        <ele>1621.8813476562</ele>
        <time>2015-06-05T09:46:30Z</time>
      </trkpt>
      <trkpt lat="42.81939" lon="-0.3967">
        <ele>1619.4782714844</ele>
        <time>2015-06-05T09:46:47Z</time>
      </trkpt>
      <trkpt lat="42.81939" lon="-0.39671">
        <ele>1619.4782714844</ele>
        <time>2015-06-05T09:46:48Z</time>
      </trkpt>
      <trkpt lat="42.81932" lon="-0.39689">
        <ele>1617.5554199219</ele>
        <time>2015-06-05T09:47:05Z</time>
      </trkpt>
      <trkpt lat="42.81932" lon="-0.39703">
        <ele>1615.15234375</ele>
        <time>2015-06-05T09:47:19Z</time>
      </trkpt>
      <trkpt lat="42.81928" lon="-0.39722">
        <ele>1611.7875976562</ele>
        <time>2015-06-05T09:47:35Z</time>
      </trkpt>
      <trkpt lat="42.81922" lon="-0.39738">
        <ele>1609.3842773438</ele>
        <time>2015-06-05T09:47:50Z</time>
      </trkpt>
      <trkpt lat="42.81919" lon="-0.39749">
        <ele>1607.9423828125</ele>
        <time>2015-06-05T09:47:59Z</time>
      </trkpt>
      <trkpt lat="42.81916" lon="-0.39769">
        <ele>1605.5390625</ele>
        <time>2015-06-05T09:48:17Z</time>
      </trkpt>
      <trkpt lat="42.81914" lon="-0.39777">
        <ele>1604.0971679688</ele>
        <time>2015-06-05T09:48:23Z</time>
      </trkpt>
      <trkpt lat="42.81904" lon="-0.39798">
        <ele>1602.1743164062</ele>
        <time>2015-06-05T09:48:41Z</time>
      </trkpt>
      <trkpt lat="42.81895" lon="-0.39814">
        <ele>1599.7712402344</ele>
        <time>2015-06-05T09:48:58Z</time>
      </trkpt>
      <trkpt lat="42.8189" lon="-0.39826">
        <ele>1597.8486328125</ele>
        <time>2015-06-05T09:49:11Z</time>
      </trkpt>
      <trkpt lat="42.81886" lon="-0.39836">
        <ele>1595.92578125</ele>
        <time>2015-06-05T09:49:29Z</time>
      </trkpt>
      <trkpt lat="42.81886" lon="-0.39837">
        <ele>1594.9643554688</ele>
        <time>2015-06-05T09:50:14Z</time>
      </trkpt>
      <trkpt lat="42.81887" lon="-0.39837">
        <ele>1594.4836425781</ele>
        <time>2015-06-05T09:50:35Z</time>
      </trkpt>
      <trkpt lat="42.81886" lon="-0.39838">
        <ele>1594.4836425781</ele>
        <time>2015-06-05T09:51:09Z</time>
      </trkpt>
      <trkpt lat="42.81886" lon="-0.39837">
        <ele>1595.4450683594</ele>
        <time>2015-06-05T09:51:50Z</time>
      </trkpt>
      <trkpt lat="42.81885" lon="-0.39835">
        <ele>1596.4067382812</ele>
        <time>2015-06-05T09:52:16Z</time>
      </trkpt>
      <trkpt lat="42.81881" lon="-0.39832">
        <ele>1596.4067382812</ele>
        <time>2015-06-05T09:52:44Z</time>
      </trkpt>
      <trkpt lat="42.81881" lon="-0.39835">
        <ele>1595.92578125</ele>
        <time>2015-06-05T09:52:56Z</time>
      </trkpt>
      <trkpt lat="42.81875" lon="-0.39846">
        <ele>1595.4450683594</ele>
        <time>2015-06-05T09:53:07Z</time>
      </trkpt>
      <trkpt lat="42.81867" lon="-0.3986">
        <ele>1595.92578125</ele>
        <time>2015-06-05T09:53:23Z</time>
      </trkpt>
      <trkpt lat="42.81868" lon="-0.39863">
        <ele>1595.92578125</ele>
        <time>2015-06-05T09:53:57Z</time>
      </trkpt>
      <trkpt lat="42.81858" lon="-0.39878">
        <ele>1597.3679199219</ele>
        <time>2015-06-05T09:54:23Z</time>
      </trkpt>
      <trkpt lat="42.81852" lon="-0.39887">
        <ele>1598.3291015625</ele>
        <time>2015-06-05T09:54:38Z</time>
      </trkpt>
      <trkpt lat="42.81849" lon="-0.39893">
        <ele>1597.8486328125</ele>
        <time>2015-06-05T09:54:56Z</time>
      </trkpt>
      <trkpt lat="42.8184" lon="-0.39895">
        <ele>1597.3679199219</ele>
        <time>2015-06-05T09:55:14Z</time>
      </trkpt>
      <trkpt lat="42.81844" lon="-0.39894">
        <ele>1597.8486328125</ele>
        <time>2015-06-05T09:55:36Z</time>
      </trkpt>
      <trkpt lat="42.81847" lon="-0.39887">
        <ele>1597.3679199219</ele>
        <time>2015-06-05T09:56:01Z</time>
      </trkpt>
      <trkpt lat="42.81844" lon="-0.39891">
        <ele>1597.8486328125</ele>
        <time>2015-06-05T09:56:25Z</time>
      </trkpt>
      <trkpt lat="42.81844" lon="-0.39885">
        <ele>1597.8486328125</ele>
        <time>2015-06-05T09:56:48Z</time>
      </trkpt>
      <trkpt lat="42.81846" lon="-0.3988">
        <ele>1598.3291015625</ele>
        <time>2015-06-05T09:57:55Z</time>
      </trkpt>
      <trkpt lat="42.81844" lon="-0.3989">
        <ele>1598.3291015625</ele>
        <time>2015-06-05T09:58:17Z</time>
      </trkpt>
      <trkpt lat="42.81842" lon="-0.39889">
        <ele>1597.3679199219</ele>
        <time>2015-06-05T09:58:31Z</time>
      </trkpt>
      <trkpt lat="42.8186" lon="-0.39863">
        <ele>1597.8486328125</ele>
        <time>2015-06-05T09:59:13Z</time>
      </trkpt>
      <trkpt lat="42.8186" lon="-0.39859">
        <ele>1597.3679199219</ele>
        <time>2015-06-05T09:59:29Z</time>
      </trkpt>
      <trkpt lat="42.81857" lon="-0.3988">
        <ele>1596.4067382812</ele>
        <time>2015-06-05T10:00:37Z</time>
      </trkpt>
      <trkpt lat="42.81849" lon="-0.39884">
        <ele>1595.4450683594</ele>
        <time>2015-06-05T10:02:14Z</time>
      </trkpt>
      <trkpt lat="42.81844" lon="-0.39883">
        <ele>1595.4450683594</ele>
        <time>2015-06-05T10:05:31Z</time>
      </trkpt>
      <trkpt lat="42.81843" lon="-0.39883">
        <ele>1594.4836425781</ele>
        <time>2015-06-05T10:05:46Z</time>
      </trkpt>
      <trkpt lat="42.81847" lon="-0.39884">
        <ele>1594.9643554688</ele>
        <time>2015-06-05T10:06:01Z</time>
      </trkpt>
      <trkpt lat="42.81846" lon="-0.39878">
        <ele>1596.8872070312</ele>
        <time>2015-06-05T10:06:42Z</time>
      </trkpt>
      <trkpt lat="42.81848" lon="-0.39881">
        <ele>1596.4067382812</ele>
        <time>2015-06-05T10:07:08Z</time>
      </trkpt>
      <trkpt lat="42.81852" lon="-0.39883">
        <ele>1595.92578125</ele>
        <time>2015-06-05T10:07:25Z</time>
      </trkpt>
      <trkpt lat="42.81857" lon="-0.39873">
        <ele>1595.92578125</ele>
        <time>2015-06-05T10:07:39Z</time>
      </trkpt>
      <trkpt lat="42.81859" lon="-0.39871">
        <ele>1594.9643554688</ele>
        <time>2015-06-05T10:07:43Z</time>
      </trkpt>
      <trkpt lat="42.81877" lon="-0.39846">
        <ele>1594.4836425781</ele>
        <time>2015-06-05T10:08:08Z</time>
      </trkpt>
      <trkpt lat="42.81902" lon="-0.39824">
        <ele>1591.5998535156</ele>
        <time>2015-06-05T10:08:35Z</time>
      </trkpt>
      <trkpt lat="42.81926" lon="-0.39805">
        <ele>1589.1965332031</ele>
        <time>2015-06-05T10:09:00Z</time>
      </trkpt>
      <trkpt lat="42.81928" lon="-0.39804">
        <ele>1589.6772460938</ele>
        <time>2015-06-05T10:09:02Z</time>
      </trkpt>
      <trkpt lat="42.8195" lon="-0.39794">
        <ele>1587.2739257812</ele>
        <time>2015-06-05T10:09:22Z</time>
      </trkpt>
      <trkpt lat="42.8197" lon="-0.39768">
        <ele>1583.9094238281</ele>
        <time>2015-06-05T10:09:45Z</time>
      </trkpt>
      <trkpt lat="42.8199" lon="-0.39737">
        <ele>1582.9479980469</ele>
        <time>2015-06-05T10:10:10Z</time>
      </trkpt>
      <trkpt lat="42.82009" lon="-0.39708">
        <ele>1579.1025390625</ele>
        <time>2015-06-05T10:10:33Z</time>
      </trkpt>
      <trkpt lat="42.82027" lon="-0.39674">
        <ele>1577.6606445312</ele>
        <time>2015-06-05T10:11:00Z</time>
      </trkpt>
      <trkpt lat="42.8205" lon="-0.39642">
        <ele>1575.7380371094</ele>
        <time>2015-06-05T10:11:27Z</time>
      </trkpt>
      <trkpt lat="42.82072" lon="-0.39609">
        <ele>1572.8542480469</ele>
        <time>2015-06-05T10:11:54Z</time>
      </trkpt>
      <trkpt lat="42.82084" lon="-0.39591">
        <ele>1572.3735351562</ele>
        <time>2015-06-05T10:12:15Z</time>
      </trkpt>
      <trkpt lat="42.82084" lon="-0.39593">
        <ele>1570.931640625</ele>
        <time>2015-06-05T10:12:34Z</time>
      </trkpt>
      <trkpt lat="42.82083" lon="-0.39597">
        <ele>1571.8928222656</ele>
        <time>2015-06-05T10:12:57Z</time>
      </trkpt>
      <trkpt lat="42.8208" lon="-0.39598">
        <ele>1571.412109375</ele>
        <time>2015-06-05T10:13:20Z</time>
      </trkpt>
      <trkpt lat="42.82084" lon="-0.39592">
        <ele>1571.412109375</ele>
        <time>2015-06-05T10:13:38Z</time>
      </trkpt>
      <trkpt lat="42.82091" lon="-0.39581">
        <ele>1570.4509277344</ele>
        <time>2015-06-05T10:13:53Z</time>
      </trkpt>
      <trkpt lat="42.82091" lon="-0.3958">
        <ele>1569.4897460938</ele>
        <time>2015-06-05T10:14:00Z</time>
      </trkpt>
      <trkpt lat="42.82107" lon="-0.39558">
        <ele>1568.5283203125</ele>
        <time>2015-06-05T10:14:22Z</time>
      </trkpt>
      <trkpt lat="42.8212" lon="-0.3955">
        <ele>1567.0864257812</ele>
        <time>2015-06-05T10:14:42Z</time>
      </trkpt>
      <trkpt lat="42.82128" lon="-0.39546">
        <ele>1566.125</ele>
        <time>2015-06-05T10:14:55Z</time>
      </trkpt>
      <trkpt lat="42.82132" lon="-0.39545">
        <ele>1566.125</ele>
        <time>2015-06-05T10:15:01Z</time>
      </trkpt>
      <trkpt lat="42.82155" lon="-0.39539">
        <ele>1564.6831054688</ele>
        <time>2015-06-05T10:15:25Z</time>
      </trkpt>
      <trkpt lat="42.82158" lon="-0.39542">
        <ele>1564.6831054688</ele>
        <time>2015-06-05T10:15:41Z</time>
      </trkpt>
      <trkpt lat="42.82166" lon="-0.39539">
        <ele>1562.7602539062</ele>
        <time>2015-06-05T10:16:00Z</time>
      </trkpt>
      <trkpt lat="42.82182" lon="-0.39531">
        <ele>1560.3569335938</ele>
        <time>2015-06-05T10:16:19Z</time>
      </trkpt>
      <trkpt lat="42.82184" lon="-0.39531">
        <ele>1559.8762207031</ele>
        <time>2015-06-05T10:16:21Z</time>
      </trkpt>
      <trkpt lat="42.82202" lon="-0.39522">
        <ele>1557.9538574219</ele>
        <time>2015-06-05T10:16:40Z</time>
      </trkpt>
      <trkpt lat="42.82221" lon="-0.39516">
        <ele>1555.5505371094</ele>
        <time>2015-06-05T10:17:00Z</time>
      </trkpt>
      <trkpt lat="42.8223" lon="-0.39515">
        <ele>1554.1086425781</ele>
        <time>2015-06-05T10:17:08Z</time>
      </trkpt>
      <trkpt lat="42.8224" lon="-0.3951">
        <ele>1550.7438964844</ele>
        <time>2015-06-05T10:17:20Z</time>
      </trkpt>
      <trkpt lat="42.82264" lon="-0.39503">
        <ele>1548.3405761719</ele>
        <time>2015-06-05T10:17:42Z</time>
      </trkpt>
      <trkpt lat="42.82285" lon="-0.395">
        <ele>1546.41796875</ele>
        <time>2015-06-05T10:18:04Z</time>
      </trkpt>
      <trkpt lat="42.82295" lon="-0.39495">
        <ele>1543.0532226562</ele>
        <time>2015-06-05T10:18:15Z</time>
      </trkpt>
      <trkpt lat="42.82309" lon="-0.39484">
        <ele>1541.1306152344</ele>
        <time>2015-06-05T10:18:33Z</time>
      </trkpt>
      <trkpt lat="42.82315" lon="-0.39481">
        <ele>1538.7275390625</ele>
        <time>2015-06-05T10:18:51Z</time>
      </trkpt>
      <trkpt lat="42.82326" lon="-0.39474">
        <ele>1535.8435058594</ele>
        <time>2015-06-05T10:19:06Z</time>
      </trkpt>
      <trkpt lat="42.8234" lon="-0.39463">
        <ele>1532.4790039062</ele>
        <time>2015-06-05T10:19:24Z</time>
      </trkpt>
      <trkpt lat="42.82348" lon="-0.39448">
        <ele>1529.5947265625</ele>
        <time>2015-06-05T10:19:38Z</time>
      </trkpt>
      <trkpt lat="42.82349" lon="-0.39445">
        <ele>1528.6335449219</ele>
        <time>2015-06-05T10:19:40Z</time>
      </trkpt>
      <trkpt lat="42.82348" lon="-0.3943">
        <ele>1527.6721191406</ele>
        <time>2015-06-05T10:19:52Z</time>
      </trkpt>
      <trkpt lat="42.82347" lon="-0.39416">
        <ele>1526.2302246094</ele>
        <time>2015-06-05T10:20:09Z</time>
      </trkpt>
      <trkpt lat="42.82351" lon="-0.39408">
        <ele>1523.8269042969</ele>
        <time>2015-06-05T10:20:26Z</time>
      </trkpt>
      <trkpt lat="42.82352" lon="-0.39403">
        <ele>1522.8657226562</ele>
        <time>2015-06-05T10:20:38Z</time>
      </trkpt>
      <trkpt lat="42.82349" lon="-0.39398">
        <ele>1522.3850097656</ele>
        <time>2015-06-05T10:20:43Z</time>
      </trkpt>
      <trkpt lat="42.82344" lon="-0.39388">
        <ele>1521.4235839844</ele>
        <time>2015-06-05T10:20:59Z</time>
      </trkpt>
      <trkpt lat="42.82349" lon="-0.39392">
        <ele>1520.4624023438</ele>
        <time>2015-06-05T10:21:16Z</time>
      </trkpt>
      <trkpt lat="42.82359" lon="-0.39389">
        <ele>1517.5783691406</ele>
        <time>2015-06-05T10:21:33Z</time>
      </trkpt>
      <trkpt lat="42.82348" lon="-0.3938">
        <ele>1516.1364746094</ele>
        <time>2015-06-05T10:21:48Z</time>
      </trkpt>
      <trkpt lat="42.82356" lon="-0.39372">
        <ele>1513.2524414062</ele>
        <time>2015-06-05T10:22:01Z</time>
      </trkpt>
      <trkpt lat="42.82358" lon="-0.39372">
        <ele>1512.7717285156</ele>
        <time>2015-06-05T10:22:29Z</time>
      </trkpt>
      <trkpt lat="42.82357" lon="-0.39371">
        <ele>1512.291015625</ele>
        <time>2015-06-05T10:22:56Z</time>
      </trkpt>
      <trkpt lat="42.82357" lon="-0.3937">
        <ele>1511.3298339844</ele>
        <time>2015-06-05T10:23:43Z</time>
      </trkpt>
      <trkpt lat="42.82357" lon="-0.3937">
        <ele>1509.8876953125</ele>
        <time>2015-06-05T10:24:35Z</time>
      </trkpt>
      <trkpt lat="42.82358" lon="-0.3937">
        <ele>1512.291015625</ele>
        <time>2015-06-05T10:25:55Z</time>
      </trkpt>
      <trkpt lat="42.82359" lon="-0.39366">
        <ele>1509.8876953125</ele>
        <time>2015-06-05T10:26:01Z</time>
      </trkpt>
      <trkpt lat="42.82357" lon="-0.39368">
        <ele>1510.8491210938</ele>
        <time>2015-06-05T10:26:16Z</time>
      </trkpt>
      <trkpt lat="42.82357" lon="-0.39368">
        <ele>1510.8491210938</ele>
        <time>2015-06-05T10:26:53Z</time>
      </trkpt>
      <trkpt lat="42.82358" lon="-0.39361">
        <ele>1510.3684082031</ele>
        <time>2015-06-05T10:27:18Z</time>
      </trkpt>
      <trkpt lat="42.82354" lon="-0.3935">
        <ele>1509.4072265625</ele>
        <time>2015-06-05T10:27:34Z</time>
      </trkpt>
      <trkpt lat="42.82355" lon="-0.39349">
        <ele>1507.9653320312</ele>
        <time>2015-06-05T10:27:37Z</time>
      </trkpt>
      <trkpt lat="42.82363" lon="-0.39344">
        <ele>1505.5620117188</ele>
        <time>2015-06-05T10:27:48Z</time>
      </trkpt>
      <trkpt lat="42.82366" lon="-0.39336">
        <ele>1502.197265625</ele>
        <time>2015-06-05T10:28:02Z</time>
      </trkpt>
      <trkpt lat="42.82367" lon="-0.39333">
        <ele>1501.716796875</ele>
        <time>2015-06-05T10:28:06Z</time>
      </trkpt>
      <trkpt lat="42.8237" lon="-0.39334">
        <ele>1500.2749023438</ele>
        <time>2015-06-05T10:28:12Z</time>
      </trkpt>
      <trkpt lat="42.82375" lon="-0.39338">
        <ele>1499.3132324219</ele>
        <time>2015-06-05T10:28:18Z</time>
      </trkpt>
      <trkpt lat="42.82385" lon="-0.3933">
        <ele>1495.9487304688</ele>
        <time>2015-06-05T10:28:33Z</time>
      </trkpt>
      <trkpt lat="42.82395" lon="-0.39321">
        <ele>1493.5454101562</ele>
        <time>2015-06-05T10:28:50Z</time>
      </trkpt>
      <trkpt lat="42.82396" lon="-0.39325">
        <ele>1493.5454101562</ele>
        <time>2015-06-05T10:29:04Z</time>
      </trkpt>
      <trkpt lat="42.82395" lon="-0.39321">
        <ele>1493.0646972656</ele>
        <time>2015-06-05T10:29:19Z</time>
      </trkpt>
      <trkpt lat="42.82395" lon="-0.39321">
        <ele>1491.6228027344</ele>
        <time>2015-06-05T10:29:40Z</time>
      </trkpt>
      <trkpt lat="42.82396" lon="-0.39321">
        <ele>1493.0646972656</ele>
        <time>2015-06-05T10:30:25Z</time>
      </trkpt>
      <trkpt lat="42.82395" lon="-0.39321">
        <ele>1494.0261230469</ele>
        <time>2015-06-05T10:31:24Z</time>
      </trkpt>
      <trkpt lat="42.82395" lon="-0.39321">
        <ele>1493.0646972656</ele>
        <time>2015-06-05T10:31:50Z</time>
      </trkpt>
      <trkpt lat="42.82396" lon="-0.3932">
        <ele>1494.0261230469</ele>
        <time>2015-06-05T10:32:26Z</time>
      </trkpt>
      <trkpt lat="42.82401" lon="-0.39317">
        <ele>1494.0261230469</ele>
        <time>2015-06-05T10:32:55Z</time>
      </trkpt>
      <trkpt lat="42.82405" lon="-0.39313">
        <ele>1490.6613769531</ele>
        <time>2015-06-05T10:33:09Z</time>
      </trkpt>
      <trkpt lat="42.8241" lon="-0.39302">
        <ele>1488.2583007812</ele>
        <time>2015-06-05T10:33:24Z</time>
      </trkpt>
      <trkpt lat="42.82411" lon="-0.39302">
        <ele>1488.2583007812</ele>
        <time>2015-06-05T10:33:25Z</time>
      </trkpt>
      <trkpt lat="42.82422" lon="-0.39302">
        <ele>1484.8937988281</ele>
        <time>2015-06-05T10:33:38Z</time>
      </trkpt>
      <trkpt lat="42.82424" lon="-0.39304">
        <ele>1484.8937988281</ele>
        <time>2015-06-05T10:33:41Z</time>
      </trkpt>
      <trkpt lat="42.82434" lon="-0.39316">
        <ele>1481.0483398438</ele>
        <time>2015-06-05T10:33:56Z</time>
      </trkpt>
      <trkpt lat="42.82447" lon="-0.39321">
        <ele>1482.970703125</ele>
        <time>2015-06-05T10:34:16Z</time>
      </trkpt>
      <trkpt lat="42.82446" lon="-0.39318">
        <ele>1482.0095214844</ele>
        <time>2015-06-05T10:34:27Z</time>
      </trkpt>
      <trkpt lat="42.82432" lon="-0.39304">
        <ele>1482.490234375</ele>
        <time>2015-06-05T10:34:47Z</time>
      </trkpt>
      <trkpt lat="42.82432" lon="-0.39308">
        <ele>1483.9321289062</ele>
        <time>2015-06-05T10:35:01Z</time>
      </trkpt>
      <trkpt lat="42.82431" lon="-0.39312">
        <ele>1484.8937988281</ele>
        <time>2015-06-05T10:35:27Z</time>
      </trkpt>
      <trkpt lat="42.82433" lon="-0.39313">
        <ele>1484.4130859375</ele>
        <time>2015-06-05T10:36:05Z</time>
      </trkpt>
      <trkpt lat="42.82438" lon="-0.39316">
        <ele>1483.4514160156</ele>
        <time>2015-06-05T10:36:15Z</time>
      </trkpt>
      <trkpt lat="42.8245" lon="-0.39317">
        <ele>1484.4130859375</ele>
        <time>2015-06-05T10:36:36Z</time>
      </trkpt>
      <trkpt lat="42.82447" lon="-0.39319">
        <ele>1485.3742675781</ele>
        <time>2015-06-05T10:37:10Z</time>
      </trkpt>
      <trkpt lat="42.82445" lon="-0.39326">
        <ele>1484.4130859375</ele>
        <time>2015-06-05T10:38:55Z</time>
      </trkpt>
      <trkpt lat="42.82446" lon="-0.39315">
        <ele>1485.3742675781</ele>
        <time>2015-06-05T10:40:10Z</time>
      </trkpt>
      <trkpt lat="42.82452" lon="-0.39332">
        <ele>1488.7390136719</ele>
        <time>2015-06-05T10:41:58Z</time>
      </trkpt>
      <trkpt lat="42.82452" lon="-0.39332">
        <ele>1488.2583007812</ele>
        <time>2015-06-05T10:42:18Z</time>
      </trkpt>
      <trkpt lat="42.82452" lon="-0.39334">
        <ele>1488.7390136719</ele>
        <time>2015-06-05T10:42:37Z</time>
      </trkpt>
      <trkpt lat="42.82451" lon="-0.39324">
        <ele>1489.2194824219</ele>
        <time>2015-06-05T10:42:53Z</time>
      </trkpt>
      <trkpt lat="42.82451" lon="-0.39315">
        <ele>1489.2194824219</ele>
        <time>2015-06-05T10:43:06Z</time>
      </trkpt>
      <trkpt lat="42.82449" lon="-0.39317">
        <ele>1489.7001953125</ele>
        <time>2015-06-05T10:43:36Z</time>
      </trkpt>
      <trkpt lat="42.8245" lon="-0.39316">
        <ele>1491.1420898438</ele>
        <time>2015-06-05T10:44:32Z</time>
      </trkpt>
      <trkpt lat="42.82449" lon="-0.39312">
        <ele>1491.1420898438</ele>
        <time>2015-06-05T10:44:52Z</time>
      </trkpt>
      <trkpt lat="42.82448" lon="-0.39304">
        <ele>1491.6228027344</ele>
        <time>2015-06-05T10:45:14Z</time>
      </trkpt>
      <trkpt lat="42.82444" lon="-0.39294">
        <ele>1494.0261230469</ele>
        <time>2015-06-05T10:45:30Z</time>
      </trkpt>
      <trkpt lat="42.82446" lon="-0.39292">
        <ele>1494.0261230469</ele>
        <time>2015-06-05T10:45:57Z</time>
      </trkpt>
      <trkpt lat="42.82447" lon="-0.39288">
        <ele>1494.0261230469</ele>
        <time>2015-06-05T10:46:13Z</time>
      </trkpt>
      <trkpt lat="42.82447" lon="-0.39287">
        <ele>1494.0261230469</ele>
        <time>2015-06-05T10:46:28Z</time>
      </trkpt>
      <trkpt lat="42.82446" lon="-0.39287">
        <ele>1494.0261230469</ele>
        <time>2015-06-05T10:46:43Z</time>
      </trkpt>
      <trkpt lat="42.82448" lon="-0.39286">
        <ele>1494.5065917969</ele>
        <time>2015-06-05T10:46:59Z</time>
      </trkpt>
      <trkpt lat="42.82448" lon="-0.39284">
        <ele>1494.0261230469</ele>
        <time>2015-06-05T10:47:18Z</time>
      </trkpt>
      <trkpt lat="42.8245" lon="-0.39275">
        <ele>1495.4680175781</ele>
        <time>2015-06-05T10:47:37Z</time>
      </trkpt>
      <trkpt lat="42.82452" lon="-0.39275">
        <ele>1496.9099121094</ele>
        <time>2015-06-05T10:47:45Z</time>
      </trkpt>
      <trkpt lat="42.82452" lon="-0.39274">
        <ele>1495.9487304688</ele>
        <time>2015-06-05T10:47:47Z</time>
      </trkpt>
      <trkpt lat="42.82453" lon="-0.39274">
        <ele>1496.9099121094</ele>
        <time>2015-06-05T10:47:49Z</time>
      </trkpt>
      <trkpt lat="42.82454" lon="-0.39269">
        <ele>1496.9099121094</ele>
        <time>2015-06-05T10:48:06Z</time>
      </trkpt>
      <trkpt lat="42.82455" lon="-0.39264">
        <ele>1497.8713378906</ele>
        <time>2015-06-05T10:48:15Z</time>
      </trkpt>
      <trkpt lat="42.82465" lon="-0.39238">
        <ele>1500.2749023438</ele>
        <time>2015-06-05T10:48:34Z</time>
      </trkpt>
      <trkpt lat="42.8247" lon="-0.39223">
        <ele>1499.7939453125</ele>
        <time>2015-06-05T10:48:47Z</time>
      </trkpt>
      <trkpt lat="42.82477" lon="-0.39207">
        <ele>1500.2749023438</ele>
        <time>2015-06-05T10:49:03Z</time>
      </trkpt>
      <trkpt lat="42.82482" lon="-0.392">
        <ele>1500.7553710938</ele>
        <time>2015-06-05T10:49:16Z</time>
      </trkpt>
      <trkpt lat="42.82483" lon="-0.39197">
        <ele>1499.7939453125</ele>
        <time>2015-06-05T10:49:46Z</time>
      </trkpt>
      <trkpt lat="42.82486" lon="-0.39187">
        <ele>1499.3132324219</ele>
        <time>2015-06-05T10:49:58Z</time>
      </trkpt>
      <trkpt lat="42.82497" lon="-0.39173">
        <ele>1499.3132324219</ele>
        <time>2015-06-05T10:50:18Z</time>
      </trkpt>
      <trkpt lat="42.825" lon="-0.3917">
        <ele>1498.3518066406</ele>
        <time>2015-06-05T10:50:41Z</time>
      </trkpt>
      <trkpt lat="42.82517" lon="-0.3916">
        <ele>1499.3132324219</ele>
        <time>2015-06-05T10:50:59Z</time>
      </trkpt>
      <trkpt lat="42.82519" lon="-0.3916">
        <ele>1499.3132324219</ele>
        <time>2015-06-05T10:51:01Z</time>
      </trkpt>
      <trkpt lat="42.82526" lon="-0.39147">
        <ele>1498.3518066406</ele>
        <time>2015-06-05T10:51:18Z</time>
      </trkpt>
      <trkpt lat="42.82532" lon="-0.3915">
        <ele>1496.9099121094</ele>
        <time>2015-06-05T10:51:31Z</time>
      </trkpt>
      <trkpt lat="42.82533" lon="-0.39151">
        <ele>1495.9487304688</ele>
        <time>2015-06-05T10:51:45Z</time>
      </trkpt>
      <trkpt lat="42.82535" lon="-0.39152">
        <ele>1494.9873046875</ele>
        <time>2015-06-05T10:52:11Z</time>
      </trkpt>
      <trkpt lat="42.82542" lon="-0.39158">
        <ele>1492.103515625</ele>
        <time>2015-06-05T10:52:25Z</time>
      </trkpt>
      <trkpt lat="42.82549" lon="-0.39155">
        <ele>1490.6613769531</ele>
        <time>2015-06-05T10:52:37Z</time>
      </trkpt>
      <trkpt lat="42.82556" lon="-0.39155">
        <ele>1488.7390136719</ele>
        <time>2015-06-05T10:52:49Z</time>
      </trkpt>
      <trkpt lat="42.82564" lon="-0.39151">
        <ele>1487.296875</ele>
        <time>2015-06-05T10:53:03Z</time>
      </trkpt>
      <trkpt lat="42.82566" lon="-0.39153">
        <ele>1486.3356933594</ele>
        <time>2015-06-05T10:53:19Z</time>
      </trkpt>
      <trkpt lat="42.82565" lon="-0.39152">
        <ele>1485.8549804688</ele>
        <time>2015-06-05T10:53:45Z</time>
      </trkpt>
      <trkpt lat="42.82567" lon="-0.39155">
        <ele>1485.3742675781</ele>
        <time>2015-06-05T10:54:06Z</time>
      </trkpt>
      <trkpt lat="42.82564" lon="-0.39152">
        <ele>1484.8937988281</ele>
        <time>2015-06-05T10:54:41Z</time>
      </trkpt>
      <trkpt lat="42.82571" lon="-0.39157">
        <ele>1484.4130859375</ele>
        <time>2015-06-05T10:55:31Z</time>
      </trkpt>
      <trkpt lat="42.82569" lon="-0.39157">
        <ele>1484.4130859375</ele>
        <time>2015-06-05T10:56:40Z</time>
      </trkpt>
      <trkpt lat="42.82568" lon="-0.39156">
        <ele>1484.4130859375</ele>
        <time>2015-06-05T10:57:20Z</time>
      </trkpt>
      <trkpt lat="42.82566" lon="-0.39157">
        <ele>1484.4130859375</ele>
        <time>2015-06-05T10:57:57Z</time>
      </trkpt>
      <trkpt lat="42.82567" lon="-0.39141">
        <ele>1483.4514160156</ele>
        <time>2015-06-05T10:58:20Z</time>
      </trkpt>
      <trkpt lat="42.82565" lon="-0.39126">
        <ele>1480.0869140625</ele>
        <time>2015-06-05T10:58:32Z</time>
      </trkpt>
      <trkpt lat="42.82567" lon="-0.39114">
        <ele>1476.7224121094</ele>
        <time>2015-06-05T10:58:44Z</time>
      </trkpt>
      <trkpt lat="42.8257" lon="-0.39112">
        <ele>1476.2416992188</ele>
        <time>2015-06-05T10:58:49Z</time>
      </trkpt>
      <trkpt lat="42.8258" lon="-0.39106">
        <ele>1474.7998046875</ele>
        <time>2015-06-05T10:59:04Z</time>
      </trkpt>
      <trkpt lat="42.82588" lon="-0.39106">
        <ele>1472.396484375</ele>
        <time>2015-06-05T10:59:18Z</time>
      </trkpt>
      <trkpt lat="42.82591" lon="-0.39107">
        <ele>1471.4350585938</ele>
        <time>2015-06-05T10:59:34Z</time>
      </trkpt>
      <trkpt lat="42.82596" lon="-0.39104">
        <ele>1469.9931640625</ele>
        <time>2015-06-05T11:00:05Z</time>
      </trkpt>
      <trkpt lat="42.82606" lon="-0.39105">
        <ele>1467.5895996094</ele>
        <time>2015-06-05T11:00:20Z</time>
      </trkpt>
      <trkpt lat="42.82609" lon="-0.39105">
        <ele>1466.1477050781</ele>
        <time>2015-06-05T11:00:24Z</time>
      </trkpt>
      <trkpt lat="42.82615" lon="-0.39107">
        <ele>1465.1865234375</ele>
        <time>2015-06-05T11:00:41Z</time>
      </trkpt>
      <trkpt lat="42.82627" lon="-0.39101">
        <ele>1464.7058105469</ele>
        <time>2015-06-05T11:00:55Z</time>
      </trkpt>
      <trkpt lat="42.82636" lon="-0.39096">
        <ele>1463.7443847656</ele>
        <time>2015-06-05T11:01:10Z</time>
      </trkpt>
      <trkpt lat="42.82651" lon="-0.39089">
        <ele>1462.783203125</ele>
        <time>2015-06-05T11:01:27Z</time>
      </trkpt>
      <trkpt lat="42.82654" lon="-0.39089">
        <ele>1462.783203125</ele>
        <time>2015-06-05T11:01:45Z</time>
      </trkpt>
      <trkpt lat="42.82654" lon="-0.39085">
        <ele>1460.8605957031</ele>
        <time>2015-06-05T11:01:57Z</time>
      </trkpt>
      <trkpt lat="42.82654" lon="-0.39086">
        <ele>1461.3413085938</ele>
        <time>2015-06-05T11:02:27Z</time>
      </trkpt>
      <trkpt lat="42.82654" lon="-0.39087">
        <ele>1461.3413085938</ele>
        <time>2015-06-05T11:02:58Z</time>
      </trkpt>
      <trkpt lat="42.82654" lon="-0.39087">
        <ele>1459.8991699219</ele>
        <time>2015-06-05T11:03:24Z</time>
      </trkpt>
      <trkpt lat="42.82655" lon="-0.39085">
        <ele>1460.3798828125</ele>
        <time>2015-06-05T11:04:40Z</time>
      </trkpt>
      <trkpt lat="42.82655" lon="-0.39085">
        <ele>1459.8991699219</ele>
        <time>2015-06-05T11:04:47Z</time>
      </trkpt>
      <trkpt lat="42.82654" lon="-0.39083">
        <ele>1459.8991699219</ele>
        <time>2015-06-05T11:06:03Z</time>
      </trkpt>
      <trkpt lat="42.82653" lon="-0.39083">
        <ele>1460.3798828125</ele>
        <time>2015-06-05T11:07:01Z</time>
      </trkpt>
      <trkpt lat="42.82657" lon="-0.39079">
        <ele>1459.8991699219</ele>
        <time>2015-06-05T11:07:35Z</time>
      </trkpt>
      <trkpt lat="42.82671" lon="-0.39074">
        <ele>1457.0153808594</ele>
        <time>2015-06-05T11:07:52Z</time>
      </trkpt>
      <trkpt lat="42.82686" lon="-0.39071">
        <ele>1456.5346679688</ele>
        <time>2015-06-05T11:08:09Z</time>
      </trkpt>
      <trkpt lat="42.827" lon="-0.39069">
        <ele>1453.6508789062</ele>
        <time>2015-06-05T11:08:27Z</time>
      </trkpt>
      <trkpt lat="42.82709" lon="-0.39059">
        <ele>1452.689453125</ele>
        <time>2015-06-05T11:08:43Z</time>
      </trkpt>
      <trkpt lat="42.8272" lon="-0.39048">
        <ele>1450.2861328125</ele>
        <time>2015-06-05T11:09:02Z</time>
      </trkpt>
      <trkpt lat="42.82734" lon="-0.39048">
        <ele>1447.4020996094</ele>
        <time>2015-06-05T11:09:19Z</time>
      </trkpt>
      <trkpt lat="42.82746" lon="-0.39048">
        <ele>1445.4794921875</ele>
        <time>2015-06-05T11:09:32Z</time>
      </trkpt>
      <trkpt lat="42.82763" lon="-0.39044">
        <ele>1442.595703125</ele>
        <time>2015-06-05T11:09:51Z</time>
      </trkpt>
      <trkpt lat="42.82777" lon="-0.39043">
        <ele>1439.2309570312</ele>
        <time>2015-06-05T11:10:07Z</time>
      </trkpt>
      <trkpt lat="42.82781" lon="-0.39041">
        <ele>1439.2309570312</ele>
        <time>2015-06-05T11:10:12Z</time>
      </trkpt>
      <trkpt lat="42.82794" lon="-0.39029">
        <ele>1437.7890625</ele>
        <time>2015-06-05T11:10:32Z</time>
      </trkpt>
      <trkpt lat="42.82794" lon="-0.39029">
        <ele>1438.2697753906</ele>
        <time>2015-06-05T11:10:57Z</time>
      </trkpt>
      <trkpt lat="42.82794" lon="-0.39029">
        <ele>1436.8276367188</ele>
        <time>2015-06-05T11:11:31Z</time>
      </trkpt>
      <trkpt lat="42.82794" lon="-0.3903">
        <ele>1436.8276367188</ele>
        <time>2015-06-05T11:12:30Z</time>
      </trkpt>
      <trkpt lat="42.82795" lon="-0.39031">
        <ele>1437.3083496094</ele>
        <time>2015-06-05T11:13:13Z</time>
      </trkpt>
      <trkpt lat="42.82795" lon="-0.39031">
        <ele>1437.3083496094</ele>
        <time>2015-06-05T11:13:53Z</time>
      </trkpt>
      <trkpt lat="42.82796" lon="-0.39031">
        <ele>1438.2697753906</ele>
        <time>2015-06-05T11:14:31Z</time>
      </trkpt>
      <trkpt lat="42.82797" lon="-0.3903">
        <ele>1438.2697753906</ele>
        <time>2015-06-05T11:14:55Z</time>
      </trkpt>
      <trkpt lat="42.82802" lon="-0.39021">
        <ele>1438.2697753906</ele>
        <time>2015-06-05T11:15:26Z</time>
      </trkpt>
      <trkpt lat="42.82813" lon="-0.38998">
        <ele>1437.3083496094</ele>
        <time>2015-06-05T11:15:47Z</time>
      </trkpt>
      <trkpt lat="42.82829" lon="-0.38978">
        <ele>1434.9050292969</ele>
        <time>2015-06-05T11:16:08Z</time>
      </trkpt>
      <trkpt lat="42.82834" lon="-0.3897">
        <ele>1433.9436035156</ele>
        <time>2015-06-05T11:16:17Z</time>
      </trkpt>
      <trkpt lat="42.82842" lon="-0.38963">
        <ele>1433.9436035156</ele>
        <time>2015-06-05T11:16:34Z</time>
      </trkpt>
      <trkpt lat="42.82841" lon="-0.38962">
        <ele>1433.462890625</ele>
        <time>2015-06-05T11:16:51Z</time>
      </trkpt>
      <trkpt lat="42.82842" lon="-0.38961">
        <ele>1433.462890625</ele>
        <time>2015-06-05T11:17:49Z</time>
      </trkpt>
      <trkpt lat="42.82841" lon="-0.38962">
        <ele>1433.9436035156</ele>
        <time>2015-06-05T11:18:16Z</time>
      </trkpt>
      <trkpt lat="42.82842" lon="-0.38964">
        <ele>1433.462890625</ele>
        <time>2015-06-05T11:18:58Z</time>
      </trkpt>
      <trkpt lat="42.82843" lon="-0.38964">
        <ele>1432.9821777344</ele>
        <time>2015-06-05T11:20:35Z</time>
      </trkpt>
      <trkpt lat="42.82843" lon="-0.38964">
        <ele>1432.5017089844</ele>
        <time>2015-06-05T11:21:09Z</time>
      </trkpt>
      <trkpt lat="42.82843" lon="-0.38964">
        <ele>1432.0209960938</ele>
        <time>2015-06-05T11:21:40Z</time>
      </trkpt>
      <trkpt lat="42.82843" lon="-0.38965">
        <ele>1432.5017089844</ele>
        <time>2015-06-05T11:22:10Z</time>
      </trkpt>
      <trkpt lat="42.82844" lon="-0.38965">
        <ele>1432.5017089844</ele>
        <time>2015-06-05T11:23:00Z</time>
      </trkpt>
      <trkpt lat="42.82847" lon="-0.38967">
        <ele>1432.9821777344</ele>
        <time>2015-06-05T11:23:40Z</time>
      </trkpt>
      <trkpt lat="42.82837" lon="-0.38964">
        <ele>1430.0983886719</ele>
        <time>2015-06-05T11:25:55Z</time>
      </trkpt>
      <trkpt lat="42.82854" lon="-0.3897">
        <ele>1431.0598144531</ele>
        <time>2015-06-05T11:26:45Z</time>
      </trkpt>
      <trkpt lat="42.82859" lon="-0.3897">
        <ele>1430.5791015625</ele>
        <time>2015-06-05T11:27:07Z</time>
      </trkpt>
    </trkseg>
  </trk>
  <trk>
    <name><![CDATA[ACTIVE LOG 002]]></name>
    <trkseg>
      <trkpt lat="42.8286" lon="-0.38969">
        <ele>1432.0209960938</ele>
        <time>2015-06-05T11:27:57Z</time>
      </trkpt>
    </trkseg>
  </trk>
  <trk>
    <name><![CDATA[ACTIVE LOG 003]]></name>
    <trkseg>
      <trkpt lat="42.82853" lon="-0.38967">
        <ele>1431.5402832031</ele>
        <time>2015-06-05T11:28:00Z</time>
      </trkpt>
    </trkseg>
  </trk>
  <trk>
    <name><![CDATA[ACTIVE LOG 004]]></name>
    <trkseg>
      <trkpt lat="42.82835" lon="-0.3896">
        <ele>1432.0209960938</ele>
        <time>2015-06-05T11:28:32Z</time>
      </trkpt>
    </trkseg>
  </trk>
  <trk>
    <name><![CDATA[ACTIVE LOG 005]]></name>
    <trkseg>
      <trkpt lat="42.8285" lon="-0.38966">
        <ele>1432.0209960938</ele>
        <time>2015-06-05T11:28:53Z</time>
      </trkpt>
    </trkseg>
  </trk>
  <trk>
    <name><![CDATA[ACTIVE LOG 006]]></name>
    <trkseg>
      <trkpt lat="42.82868" lon="-0.3897">
        <ele>1432.5017089844</ele>
        <time>2015-06-05T11:29:39Z</time>
      </trkpt>
    </trkseg>
  </trk>
  <trk>
    <name><![CDATA[ACTIVE LOG 007]]></name>
    <trkseg>
      <trkpt lat="42.82847" lon="-0.38965">
        <ele>1431.5402832031</ele>
        <time>2015-06-05T11:29:49Z</time>
      </trkpt>
    </trkseg>
  </trk>
  <trk>
    <name><![CDATA[ACTIVE LOG 008]]></name>
    <trkseg>
      <trkpt lat="42.82844" lon="-0.38964">
        <ele>1430.5791015625</ele>
        <time>2015-06-05T11:30:20Z</time>
      </trkpt>
      <trkpt lat="42.82844" lon="-0.38964">
        <ele>1431.5402832031</ele>
        <time>2015-06-05T11:30:27Z</time>
      </trkpt>
      <trkpt lat="42.82844" lon="-0.38964">
        <ele>1428.6564941406</ele>
        <time>2015-06-05T11:31:13Z</time>
      </trkpt>
      <trkpt lat="42.82844" lon="-0.38964">
        <ele>1425.7724609375</ele>
        <time>2015-06-05T11:31:50Z</time>
      </trkpt>
      <trkpt lat="42.82844" lon="-0.38964">
        <ele>1421.9272460938</ele>
        <time>2015-06-05T11:32:21Z</time>
      </trkpt>
      <trkpt lat="42.82844" lon="-0.38964">
        <ele>1423.8498535156</ele>
        <time>2015-06-05T11:32:22Z</time>
      </trkpt>
      <trkpt lat="42.82844" lon="-0.38964">
        <ele>1420.4853515625</ele>
        <time>2015-06-05T11:32:34Z</time>
      </trkpt>
      <trkpt lat="42.82844" lon="-0.38964">
        <ele>1417.1206054688</ele>
        <time>2015-06-05T11:32:55Z</time>
      </trkpt>
      <trkpt lat="42.82844" lon="-0.38964">
        <ele>1413.755859375</ele>
        <time>2015-06-05T11:33:11Z</time>
      </trkpt>
      <trkpt lat="42.82844" lon="-0.38964">
        <ele>1410.8720703125</ele>
        <time>2015-06-05T11:33:26Z</time>
      </trkpt>
      <trkpt lat="42.82844" lon="-0.38964">
        <ele>1407.5075683594</ele>
        <time>2015-06-05T11:33:50Z</time>
      </trkpt>
      <trkpt lat="42.82844" lon="-0.38964">
        <ele>1404.1430664062</ele>
        <time>2015-06-05T11:34:21Z</time>
      </trkpt>
      <trkpt lat="42.82844" lon="-0.38964">
        <ele>1401.2587890625</ele>
        <time>2015-06-05T11:41:19Z</time>
      </trkpt>
    </trkseg>
  </trk>
  <trk>
    <name><![CDATA[ACTIVE LOG 009]]></name>
    <trkseg>
      <trkpt lat="42.83098" lon="-0.38803">
        <ele>1399.3361816406</ele>
        <time>2015-06-05T11:43:31Z</time>
      </trkpt>
      <trkpt lat="42.83116" lon="-0.38788">
        <ele>1396.4523925781</ele>
        <time>2015-06-05T11:43:56Z</time>
      </trkpt>
      <trkpt lat="42.83126" lon="-0.3878">
        <ele>1395.0102539062</ele>
        <time>2015-06-05T11:44:10Z</time>
      </trkpt>
      <trkpt lat="42.83131" lon="-0.38774">
        <ele>1392.6071777344</ele>
        <time>2015-06-05T11:44:20Z</time>
      </trkpt>
      <trkpt lat="42.83139" lon="-0.38772">
        <ele>1391.6457519531</ele>
        <time>2015-06-05T11:44:32Z</time>
      </trkpt>
      <trkpt lat="42.83146" lon="-0.38768">
        <ele>1390.2038574219</ele>
        <time>2015-06-05T11:44:42Z</time>
      </trkpt>
      <trkpt lat="42.83154" lon="-0.38762">
        <ele>1387.3195800781</ele>
        <time>2015-06-05T11:44:54Z</time>
      </trkpt>
      <trkpt lat="42.8316" lon="-0.3876">
        <ele>1386.3583984375</ele>
        <time>2015-06-05T11:45:03Z</time>
      </trkpt>
      <trkpt lat="42.83168" lon="-0.3876">
        <ele>1382.9936523438</ele>
        <time>2015-06-05T11:45:15Z</time>
      </trkpt>
      <trkpt lat="42.83169" lon="-0.3876">
        <ele>1382.9936523438</ele>
        <time>2015-06-05T11:45:16Z</time>
      </trkpt>
      <trkpt lat="42.83178" lon="-0.38753">
        <ele>1381.0712890625</ele>
        <time>2015-06-05T11:45:35Z</time>
      </trkpt>
      <trkpt lat="42.83186" lon="-0.38749">
        <ele>1381.0712890625</ele>
        <time>2015-06-05T11:45:48Z</time>
      </trkpt>
      <trkpt lat="42.83192" lon="-0.38741">
        <ele>1380.5905761719</ele>
        <time>2015-06-05T11:46:01Z</time>
      </trkpt>
      <trkpt lat="42.83194" lon="-0.38732">
        <ele>1380.1098632812</ele>
        <time>2015-06-05T11:46:10Z</time>
      </trkpt>
      <trkpt lat="42.83199" lon="-0.38727">
        <ele>1380.1098632812</ele>
        <time>2015-06-05T11:46:51Z</time>
      </trkpt>
      <trkpt lat="42.83201" lon="-0.38728">
        <ele>1379.1484375</ele>
        <time>2015-06-05T11:51:08Z</time>
      </trkpt>
      <trkpt lat="42.83204" lon="-0.3873">
        <ele>1378.66796875</ele>
        <time>2015-06-05T12:04:43Z</time>
      </trkpt>
      <trkpt lat="42.83207" lon="-0.38731">
        <ele>1380.1098632812</ele>
        <time>2015-06-05T12:11:08Z</time>
      </trkpt>
      <trkpt lat="42.83203" lon="-0.38732">
        <ele>1380.5905761719</ele>
        <time>2015-06-05T12:12:54Z</time>
      </trkpt>
      <trkpt lat="42.83202" lon="-0.3873">
        <ele>1380.5905761719</ele>
        <time>2015-06-05T12:13:51Z</time>
      </trkpt>
      <trkpt lat="42.83201" lon="-0.38738">
        <ele>1381.5517578125</ele>
        <time>2015-06-05T12:14:05Z</time>
      </trkpt>
      <trkpt lat="42.83204" lon="-0.38738">
        <ele>1382.9936523438</ele>
        <time>2015-06-05T12:14:12Z</time>
      </trkpt>
      <trkpt lat="42.83212" lon="-0.38737">
        <ele>1384.9165039062</ele>
        <time>2015-06-05T12:14:27Z</time>
      </trkpt>
      <trkpt lat="42.83218" lon="-0.38722">
        <ele>1384.9165039062</ele>
        <time>2015-06-05T12:14:43Z</time>
      </trkpt>
      <trkpt lat="42.83219" lon="-0.38721">
        <ele>1384.4357910156</ele>
        <time>2015-06-05T12:14:44Z</time>
      </trkpt>
      <trkpt lat="42.83232" lon="-0.38708">
        <ele>1383.955078125</ele>
        <time>2015-06-05T12:15:03Z</time>
      </trkpt>
      <trkpt lat="42.83236" lon="-0.38708">
        <ele>1383.955078125</ele>
        <time>2015-06-05T12:15:20Z</time>
      </trkpt>
      <trkpt lat="42.8323" lon="-0.38721">
        <ele>1383.955078125</ele>
        <time>2015-06-05T12:15:35Z</time>
      </trkpt>
      <trkpt lat="42.83222" lon="-0.38734">
        <ele>1385.8776855469</ele>
        <time>2015-06-05T12:15:52Z</time>
      </trkpt>
      <trkpt lat="42.83217" lon="-0.38741">
        <ele>1385.8776855469</ele>
        <time>2015-06-05T12:16:08Z</time>
      </trkpt>
      <trkpt lat="42.83221" lon="-0.38756">
        <ele>1388.7619628906</ele>
        <time>2015-06-05T12:16:24Z</time>
      </trkpt>
      <trkpt lat="42.83222" lon="-0.3876">
        <ele>1387.8002929688</ele>
        <time>2015-06-05T12:16:45Z</time>
      </trkpt>
      <trkpt lat="42.83222" lon="-0.38764">
        <ele>1388.7619628906</ele>
        <time>2015-06-05T12:16:56Z</time>
      </trkpt>
      <trkpt lat="42.83221" lon="-0.38778">
        <ele>1389.7231445312</ele>
        <time>2015-06-05T12:17:10Z</time>
      </trkpt>
      <trkpt lat="42.83205" lon="-0.38792">
        <ele>1392.1264648438</ele>
        <time>2015-06-05T12:17:28Z</time>
      </trkpt>
      <trkpt lat="42.83197" lon="-0.38807">
        <ele>1394.0490722656</ele>
        <time>2015-06-05T12:17:45Z</time>
      </trkpt>
      <trkpt lat="42.83197" lon="-0.38817">
        <ele>1396.9328613281</ele>
        <time>2015-06-05T12:18:00Z</time>
      </trkpt>
      <trkpt lat="42.8319" lon="-0.38825">
        <ele>1397.4135742188</ele>
        <time>2015-06-05T12:18:11Z</time>
      </trkpt>
      <trkpt lat="42.8318" lon="-0.38828">
        <ele>1398.3747558594</ele>
        <time>2015-06-05T12:18:27Z</time>
      </trkpt>
      <trkpt lat="42.83174" lon="-0.38825">
        <ele>1397.8942871094</ele>
        <time>2015-06-05T12:18:38Z</time>
      </trkpt>
      <trkpt lat="42.83172" lon="-0.38821">
        <ele>1398.3747558594</ele>
        <time>2015-06-05T12:18:48Z</time>
      </trkpt>
      <trkpt lat="42.83165" lon="-0.38818">
        <ele>1397.4135742188</ele>
        <time>2015-06-05T12:18:55Z</time>
      </trkpt>
      <trkpt lat="42.83165" lon="-0.38809">
        <ele>1397.4135742188</ele>
        <time>2015-06-05T12:19:11Z</time>
      </trkpt>
      <trkpt lat="42.83166" lon="-0.38811">
        <ele>1397.4135742188</ele>
        <time>2015-06-05T12:19:13Z</time>
      </trkpt>
      <trkpt lat="42.83169" lon="-0.38823">
        <ele>1397.8942871094</ele>
        <time>2015-06-05T12:19:28Z</time>
      </trkpt>
      <trkpt lat="42.83172" lon="-0.38821">
        <ele>1397.8942871094</ele>
        <time>2015-06-05T12:19:29Z</time>
      </trkpt>
      <trkpt lat="42.83188" lon="-0.38822">
        <ele>1398.3747558594</ele>
        <time>2015-06-05T12:19:41Z</time>
      </trkpt>
      <trkpt lat="42.8319" lon="-0.38826">
        <ele>1397.4135742188</ele>
        <time>2015-06-05T12:19:56Z</time>
      </trkpt>
      <trkpt lat="42.83196" lon="-0.38819">
        <ele>1397.8942871094</ele>
        <time>2015-06-05T12:20:05Z</time>
      </trkpt>
      <trkpt lat="42.83208" lon="-0.38811">
        <ele>1396.9328613281</ele>
        <time>2015-06-05T12:20:21Z</time>
      </trkpt>
      <trkpt lat="42.83214" lon="-0.38805">
        <ele>1396.9328613281</ele>
        <time>2015-06-05T12:20:47Z</time>
      </trkpt>
      <trkpt lat="42.8322" lon="-0.38799">
        <ele>1396.9328613281</ele>
        <time>2015-06-05T12:21:00Z</time>
      </trkpt>
      <trkpt lat="42.83228" lon="-0.38794">
        <ele>1396.4523925781</ele>
        <time>2015-06-05T12:21:14Z</time>
      </trkpt>
      <trkpt lat="42.83242" lon="-0.38788">
        <ele>1395.0102539062</ele>
        <time>2015-06-05T12:21:31Z</time>
      </trkpt>
      <trkpt lat="42.83258" lon="-0.38785">
        <ele>1395.9716796875</ele>
        <time>2015-06-05T12:21:48Z</time>
      </trkpt>
      <trkpt lat="42.83272" lon="-0.38787">
        <ele>1396.4523925781</ele>
        <time>2015-06-05T12:22:04Z</time>
      </trkpt>
      <trkpt lat="42.83276" lon="-0.38784">
        <ele>1395.9716796875</ele>
        <time>2015-06-05T12:22:10Z</time>
      </trkpt>
      <trkpt lat="42.83288" lon="-0.38773">
        <ele>1396.9328613281</ele>
        <time>2015-06-05T12:22:27Z</time>
      </trkpt>
      <trkpt lat="42.83295" lon="-0.38765">
        <ele>1396.4523925781</ele>
        <time>2015-06-05T12:22:44Z</time>
      </trkpt>
      <trkpt lat="42.83293" lon="-0.38766">
        <ele>1395.4909667969</ele>
        <time>2015-06-05T12:23:07Z</time>
      </trkpt>
      <trkpt lat="42.83294" lon="-0.38767">
        <ele>1394.5295410156</ele>
        <time>2015-06-05T12:25:05Z</time>
      </trkpt>
      <trkpt lat="42.83292" lon="-0.38767">
        <ele>1393.568359375</ele>
        <time>2015-06-05T12:27:05Z</time>
      </trkpt>
      <trkpt lat="42.83297" lon="-0.38768">
        <ele>1394.0490722656</ele>
        <time>2015-06-05T12:27:59Z</time>
      </trkpt>
      <trkpt lat="42.83311" lon="-0.38773">
        <ele>1393.0876464844</ele>
        <time>2015-06-05T12:28:15Z</time>
      </trkpt>
      <trkpt lat="42.83329" lon="-0.38775">
        <ele>1393.568359375</ele>
        <time>2015-06-05T12:28:30Z</time>
      </trkpt>
      <trkpt lat="42.83346" lon="-0.38776">
        <ele>1393.568359375</ele>
        <time>2015-06-05T12:28:47Z</time>
      </trkpt>
      <trkpt lat="42.83363" lon="-0.38782">
        <ele>1392.6071777344</ele>
        <time>2015-06-05T12:29:03Z</time>
      </trkpt>
      <trkpt lat="42.83382" lon="-0.38788">
        <ele>1391.1650390625</ele>
        <time>2015-06-05T12:29:21Z</time>
      </trkpt>
      <trkpt lat="42.83401" lon="-0.38799">
        <ele>1390.6843261719</ele>
        <time>2015-06-05T12:29:39Z</time>
      </trkpt>
      <trkpt lat="42.83415" lon="-0.38806">
        <ele>1388.28125</ele>
        <time>2015-06-05T12:29:52Z</time>
      </trkpt>
      <trkpt lat="42.83439" lon="-0.38815">
        <ele>1389.7231445312</ele>
        <time>2015-06-05T12:30:14Z</time>
      </trkpt>
      <trkpt lat="42.83443" lon="-0.38816">
        <ele>1390.6843261719</ele>
        <time>2015-06-05T12:30:18Z</time>
      </trkpt>
      <trkpt lat="42.83453" lon="-0.38805">
        <ele>1389.7231445312</ele>
        <time>2015-06-05T12:30:33Z</time>
      </trkpt>
      <trkpt lat="42.83461" lon="-0.38801">
        <ele>1389.7231445312</ele>
        <time>2015-06-05T12:30:51Z</time>
      </trkpt>
      <trkpt lat="42.83484" lon="-0.38788">
        <ele>1388.28125</ele>
        <time>2015-06-05T12:31:13Z</time>
      </trkpt>
      <trkpt lat="42.83493" lon="-0.38789">
        <ele>1386.8388671875</ele>
        <time>2015-06-05T12:31:30Z</time>
      </trkpt>
      <trkpt lat="42.83501" lon="-0.38783">
        <ele>1385.3969726562</ele>
        <time>2015-06-05T12:31:47Z</time>
      </trkpt>
      <trkpt lat="42.835" lon="-0.38779">
        <ele>1386.8388671875</ele>
        <time>2015-06-05T12:32:00Z</time>
      </trkpt>
      <trkpt lat="42.83528" lon="-0.38787">
        <ele>1387.3195800781</ele>
        <time>2015-06-05T12:32:25Z</time>
      </trkpt>
      <trkpt lat="42.83547" lon="-0.38778">
        <ele>1387.3195800781</ele>
        <time>2015-06-05T12:32:41Z</time>
      </trkpt>
      <trkpt lat="42.83567" lon="-0.38783">
        <ele>1384.9165039062</ele>
        <time>2015-06-05T12:32:58Z</time>
      </trkpt>
      <trkpt lat="42.83567" lon="-0.38792">
        <ele>1383.955078125</ele>
        <time>2015-06-05T12:33:10Z</time>
      </trkpt>
      <trkpt lat="42.83579" lon="-0.38791">
        <ele>1381.0712890625</ele>
        <time>2015-06-05T12:34:01Z</time>
      </trkpt>
      <trkpt lat="42.83597" lon="-0.38784">
        <ele>1379.1484375</ele>
        <time>2015-06-05T12:34:13Z</time>
      </trkpt>
      <trkpt lat="42.83605" lon="-0.38791">
        <ele>1378.66796875</ele>
        <time>2015-06-05T12:34:34Z</time>
      </trkpt>
      <trkpt lat="42.83611" lon="-0.38792">
        <ele>1376.7453613281</ele>
        <time>2015-06-05T12:34:45Z</time>
      </trkpt>
      <trkpt lat="42.83619" lon="-0.38788">
        <ele>1376.7453613281</ele>
        <time>2015-06-05T12:34:59Z</time>
      </trkpt>
      <trkpt lat="42.83624" lon="-0.38784">
        <ele>1376.2646484375</ele>
        <time>2015-06-05T12:35:12Z</time>
      </trkpt>
      <trkpt lat="42.83633" lon="-0.38776">
        <ele>1374.8227539062</ele>
        <time>2015-06-05T12:35:29Z</time>
      </trkpt>
      <trkpt lat="42.83641" lon="-0.38771">
        <ele>1373.861328125</ele>
        <time>2015-06-05T12:35:42Z</time>
      </trkpt>
      <trkpt lat="42.83653" lon="-0.38765">
        <ele>1373.861328125</ele>
        <time>2015-06-05T12:35:59Z</time>
      </trkpt>
      <trkpt lat="42.83655" lon="-0.38776">
        <ele>1375.3032226562</ele>
        <time>2015-06-05T12:36:13Z</time>
      </trkpt>
      <trkpt lat="42.83654" lon="-0.38768">
        <ele>1374.8227539062</ele>
        <time>2015-06-05T12:36:38Z</time>
      </trkpt>
      <trkpt lat="42.83657" lon="-0.38758">
        <ele>1372.9001464844</ele>
        <time>2015-06-05T12:36:50Z</time>
      </trkpt>
      <trkpt lat="42.83659" lon="-0.38744">
        <ele>1371.4577636719</ele>
        <time>2015-06-05T12:37:06Z</time>
      </trkpt>
      <trkpt lat="42.8366" lon="-0.38739">
        <ele>1371.4577636719</ele>
        <time>2015-06-05T12:37:13Z</time>
      </trkpt>
      <trkpt lat="42.83666" lon="-0.38716">
        <ele>1371.4577636719</ele>
        <time>2015-06-05T12:37:32Z</time>
      </trkpt>
      <trkpt lat="42.8368" lon="-0.38698">
        <ele>1371.4577636719</ele>
        <time>2015-06-05T12:37:51Z</time>
      </trkpt>
      <trkpt lat="42.837" lon="-0.3869">
        <ele>1370.4965820312</ele>
        <time>2015-06-05T12:38:12Z</time>
      </trkpt>
      <trkpt lat="42.83721" lon="-0.38683">
        <ele>1368.5739746094</ele>
        <time>2015-06-05T12:38:35Z</time>
      </trkpt>
      <trkpt lat="42.83738" lon="-0.38678">
        <ele>1367.1320800781</ele>
        <time>2015-06-05T12:38:52Z</time>
      </trkpt>
      <trkpt lat="42.8375" lon="-0.38677">
        <ele>1367.6125488281</ele>
        <time>2015-06-05T12:39:03Z</time>
      </trkpt>
      <trkpt lat="42.83766" lon="-0.38667">
        <ele>1366.1706542969</ele>
        <time>2015-06-05T12:39:21Z</time>
      </trkpt>
      <trkpt lat="42.83767" lon="-0.38663">
        <ele>1365.2094726562</ele>
        <time>2015-06-05T12:39:25Z</time>
      </trkpt>
      <trkpt lat="42.83766" lon="-0.38661">
        <ele>1363.7673339844</ele>
        <time>2015-06-05T12:39:27Z</time>
      </trkpt>
      <trkpt lat="42.83764" lon="-0.38659">
        <ele>1363.2868652344</ele>
        <time>2015-06-05T12:39:29Z</time>
      </trkpt>
      <trkpt lat="42.83762" lon="-0.38656">
        <ele>1362.3254394531</ele>
        <time>2015-06-05T12:39:34Z</time>
      </trkpt>
      <trkpt lat="42.83759" lon="-0.38655">
        <ele>1362.3254394531</ele>
        <time>2015-06-05T12:40:17Z</time>
      </trkpt>
      <trkpt lat="42.83758" lon="-0.38653">
        <ele>1361.8449707031</ele>
        <time>2015-06-05T12:40:35Z</time>
      </trkpt>
      <trkpt lat="42.83762" lon="-0.38655">
        <ele>1362.8061523438</ele>
        <time>2015-06-05T12:40:52Z</time>
      </trkpt>
      <trkpt lat="42.83765" lon="-0.38659">
        <ele>1361.8449707031</ele>
        <time>2015-06-05T12:41:31Z</time>
      </trkpt>
      <trkpt lat="42.83762" lon="-0.38659">
        <ele>1363.2868652344</ele>
        <time>2015-06-05T12:41:59Z</time>
      </trkpt>
      <trkpt lat="42.83762" lon="-0.38658">
        <ele>1362.3254394531</ele>
        <time>2015-06-05T12:42:30Z</time>
      </trkpt>
      <trkpt lat="42.83763" lon="-0.38655">
        <ele>1360.4028320312</ele>
        <time>2015-06-05T12:42:44Z</time>
      </trkpt>
      <trkpt lat="42.8376" lon="-0.38655">
        <ele>1363.7673339844</ele>
        <time>2015-06-05T12:43:37Z</time>
      </trkpt>
      <trkpt lat="42.83763" lon="-0.38657">
        <ele>1362.8061523438</ele>
        <time>2015-06-05T12:43:56Z</time>
      </trkpt>
      <trkpt lat="42.83766" lon="-0.38659">
        <ele>1362.8061523438</ele>
        <time>2015-06-05T12:44:22Z</time>
      </trkpt>
      <trkpt lat="42.83782" lon="-0.38658">
        <ele>1363.2868652344</ele>
        <time>2015-06-05T12:44:39Z</time>
      </trkpt>
      <trkpt lat="42.83795" lon="-0.38659">
        <ele>1363.2868652344</ele>
        <time>2015-06-05T12:44:54Z</time>
      </trkpt>
      <trkpt lat="42.83807" lon="-0.38657">
        <ele>1362.8061523438</ele>
        <time>2015-06-05T12:45:08Z</time>
      </trkpt>
      <trkpt lat="42.83807" lon="-0.38656">
        <ele>1362.3254394531</ele>
        <time>2015-06-05T12:46:02Z</time>
      </trkpt>
      <trkpt lat="42.83808" lon="-0.38657">
        <ele>1361.8449707031</ele>
        <time>2015-06-05T12:46:46Z</time>
      </trkpt>
      <trkpt lat="42.83809" lon="-0.38657">
        <ele>1362.8061523438</ele>
        <time>2015-06-05T12:47:45Z</time>
      </trkpt>
      <trkpt lat="42.83809" lon="-0.38656">
        <ele>1362.8061523438</ele>
        <time>2015-06-05T12:48:48Z</time>
      </trkpt>
      <trkpt lat="42.83809" lon="-0.38656">
        <ele>1361.3642578125</ele>
        <time>2015-06-05T12:48:51Z</time>
      </trkpt>
      <trkpt lat="42.83808" lon="-0.38657">
        <ele>1362.3254394531</ele>
        <time>2015-06-05T12:49:51Z</time>
      </trkpt>
      <trkpt lat="42.83808" lon="-0.38657">
        <ele>1361.3642578125</ele>
        <time>2015-06-05T12:50:23Z</time>
      </trkpt>
      <trkpt lat="42.83812" lon="-0.38653">
        <ele>1362.8061523438</ele>
        <time>2015-06-05T12:51:14Z</time>
      </trkpt>
      <trkpt lat="42.83818" lon="-0.38649">
        <ele>1362.3254394531</ele>
        <time>2015-06-05T12:51:28Z</time>
      </trkpt>
      <trkpt lat="42.83821" lon="-0.38649">
        <ele>1361.3642578125</ele>
        <time>2015-06-05T12:51:38Z</time>
      </trkpt>
      <trkpt lat="42.83842" lon="-0.38645">
        <ele>1360.4028320312</ele>
        <time>2015-06-05T12:51:57Z</time>
      </trkpt>
      <trkpt lat="42.83869" lon="-0.3864">
        <ele>1358.9609375</ele>
        <time>2015-06-05T12:52:20Z</time>
      </trkpt>
      <trkpt lat="42.83889" lon="-0.38638">
        <ele>1357.5190429688</ele>
        <time>2015-06-05T12:52:39Z</time>
      </trkpt>
      <trkpt lat="42.83917" lon="-0.38635">
        <ele>1357.9997558594</ele>
        <time>2015-06-05T12:53:03Z</time>
      </trkpt>
      <trkpt lat="42.83937" lon="-0.38632">
        <ele>1357.5190429688</ele>
        <time>2015-06-05T12:53:21Z</time>
      </trkpt>
      <trkpt lat="42.83961" lon="-0.38636">
        <ele>1356.0769042969</ele>
        <time>2015-06-05T12:53:41Z</time>
      </trkpt>
      <trkpt lat="42.83982" lon="-0.38644">
        <ele>1355.1154785156</ele>
        <time>2015-06-05T12:54:00Z</time>
      </trkpt>
      <trkpt lat="42.84" lon="-0.38648">
        <ele>1354.154296875</ele>
        <time>2015-06-05T12:54:15Z</time>
      </trkpt>
      <trkpt lat="42.84021" lon="-0.38656">
        <ele>1351.7509765625</ele>
        <time>2015-06-05T12:54:33Z</time>
      </trkpt>
      <trkpt lat="42.84024" lon="-0.38661">
        <ele>1350.7895507812</ele>
        <time>2015-06-05T12:54:48Z</time>
      </trkpt>
      <trkpt lat="42.84025" lon="-0.38662">
        <ele>1352.2314453125</ele>
        <time>2015-06-05T12:55:01Z</time>
      </trkpt>
      <trkpt lat="42.84047" lon="-0.3866">
        <ele>1349.8283691406</ele>
        <time>2015-06-05T12:55:21Z</time>
      </trkpt>
      <trkpt lat="42.84071" lon="-0.3866">
        <ele>1348.8669433594</ele>
        <time>2015-06-05T12:55:42Z</time>
      </trkpt>
      <trkpt lat="42.84088" lon="-0.38672">
        <ele>1345.5024414062</ele>
        <time>2015-06-05T12:55:58Z</time>
      </trkpt>
      <trkpt lat="42.84107" lon="-0.38689">
        <ele>1346.4638671875</ele>
        <time>2015-06-05T12:56:17Z</time>
      </trkpt>
      <trkpt lat="42.84131" lon="-0.38708">
        <ele>1345.9831542969</ele>
        <time>2015-06-05T12:56:39Z</time>
      </trkpt>
      <trkpt lat="42.84154" lon="-0.3873">
        <ele>1345.0217285156</ele>
        <time>2015-06-05T12:57:01Z</time>
      </trkpt>
      <trkpt lat="42.84159" lon="-0.38733">
        <ele>1344.060546875</ele>
        <time>2015-06-05T12:57:06Z</time>
      </trkpt>
      <trkpt lat="42.84164" lon="-0.38734">
        <ele>1344.060546875</ele>
        <time>2015-06-05T12:57:11Z</time>
      </trkpt>
      <trkpt lat="42.84182" lon="-0.38736">
        <ele>1344.060546875</ele>
        <time>2015-06-05T12:57:27Z</time>
      </trkpt>
      <trkpt lat="42.84191" lon="-0.38734">
        <ele>1344.541015625</ele>
        <time>2015-06-05T12:57:36Z</time>
      </trkpt>
      <trkpt lat="42.84202" lon="-0.38736">
        <ele>1343.0991210938</ele>
        <time>2015-06-05T12:57:51Z</time>
      </trkpt>
      <trkpt lat="42.84231" lon="-0.38753">
        <ele>1344.060546875</ele>
        <time>2015-06-05T12:58:12Z</time>
      </trkpt>
      <trkpt lat="42.84261" lon="-0.38768">
        <ele>1344.541015625</ele>
        <time>2015-06-05T12:58:34Z</time>
      </trkpt>
      <trkpt lat="42.84286" lon="-0.38781">
        <ele>1344.060546875</ele>
        <time>2015-06-05T12:58:55Z</time>
      </trkpt>
      <trkpt lat="42.84311" lon="-0.38798">
        <ele>1343.0991210938</ele>
        <time>2015-06-05T12:59:16Z</time>
      </trkpt>
      <trkpt lat="42.84341" lon="-0.38819">
        <ele>1342.1379394531</ele>
        <time>2015-06-05T12:59:42Z</time>
      </trkpt>
      <trkpt lat="42.84365" lon="-0.38823">
        <ele>1338.7731933594</ele>
        <time>2015-06-05T13:00:01Z</time>
      </trkpt>
      <trkpt lat="42.84373" lon="-0.38821">
        <ele>1338.7731933594</ele>
        <time>2015-06-05T13:00:08Z</time>
      </trkpt>
      <trkpt lat="42.84395" lon="-0.38818">
        <ele>1338.7731933594</ele>
        <time>2015-06-05T13:00:25Z</time>
      </trkpt>
      <trkpt lat="42.84423" lon="-0.38816">
        <ele>1338.2924804688</ele>
        <time>2015-06-05T13:00:47Z</time>
      </trkpt>
      <trkpt lat="42.84446" lon="-0.38822">
        <ele>1337.8117675781</ele>
        <time>2015-06-05T13:01:06Z</time>
      </trkpt>
      <trkpt lat="42.84471" lon="-0.38831">
        <ele>1337.8117675781</ele>
        <time>2015-06-05T13:01:26Z</time>
      </trkpt>
      <trkpt lat="42.84502" lon="-0.38837">
        <ele>1336.3698730469</ele>
        <time>2015-06-05T13:01:52Z</time>
      </trkpt>
      <trkpt lat="42.8453" lon="-0.38841">
        <ele>1335.4084472656</ele>
        <time>2015-06-05T13:02:14Z</time>
      </trkpt>
      <trkpt lat="42.84548" lon="-0.38851">
        <ele>1335.4084472656</ele>
        <time>2015-06-05T13:02:32Z</time>
      </trkpt>
      <trkpt lat="42.84548" lon="-0.38852">
        <ele>1335.4084472656</ele>
        <time>2015-06-05T13:02:48Z</time>
      </trkpt>
      <trkpt lat="42.84549" lon="-0.38853">
        <ele>1335.4084472656</ele>
        <time>2015-06-05T13:03:08Z</time>
      </trkpt>
      <trkpt lat="42.84549" lon="-0.38853">
        <ele>1334.447265625</ele>
        <time>2015-06-05T13:03:10Z</time>
      </trkpt>
      <trkpt lat="42.84548" lon="-0.38851">
        <ele>1334.9279785156</ele>
        <time>2015-06-05T13:03:45Z</time>
      </trkpt>
      <trkpt lat="42.84548" lon="-0.38852">
        <ele>1334.447265625</ele>
        <time>2015-06-05T13:04:02Z</time>
      </trkpt>
      <trkpt lat="42.84548" lon="-0.38852">
        <ele>1333.0051269531</ele>
        <time>2015-06-05T13:04:06Z</time>
      </trkpt>
      <trkpt lat="42.84548" lon="-0.38852">
        <ele>1333.9665527344</ele>
        <time>2015-06-05T13:04:34Z</time>
      </trkpt>
      <trkpt lat="42.84549" lon="-0.38852">
        <ele>1332.5246582031</ele>
        <time>2015-06-05T13:05:04Z</time>
      </trkpt>
      <trkpt lat="42.84549" lon="-0.38853">
        <ele>1332.5246582031</ele>
        <time>2015-06-05T13:08:43Z</time>
      </trkpt>
      <trkpt lat="42.84548" lon="-0.38853">
        <ele>1333.0051269531</ele>
        <time>2015-06-05T13:09:38Z</time>
      </trkpt>
      <trkpt lat="42.84548" lon="-0.38854">
        <ele>1331.0827636719</ele>
        <time>2015-06-05T13:10:21Z</time>
      </trkpt>
      <trkpt lat="42.84548" lon="-0.38853">
        <ele>1332.0439453125</ele>
        <time>2015-06-05T13:11:22Z</time>
      </trkpt>
      <trkpt lat="42.84548" lon="-0.38853">
        <ele>1331.5632324219</ele>
        <time>2015-06-05T13:11:45Z</time>
      </trkpt>
      <trkpt lat="42.84548" lon="-0.38852">
        <ele>1331.5632324219</ele>
        <time>2015-06-05T13:12:05Z</time>
      </trkpt>
      <trkpt lat="42.84548" lon="-0.38852">
        <ele>1331.0827636719</ele>
        <time>2015-06-05T13:13:04Z</time>
      </trkpt>
      <trkpt lat="42.84548" lon="-0.38852">
        <ele>1330.6020507812</ele>
        <time>2015-06-05T13:13:26Z</time>
      </trkpt>
      <trkpt lat="42.84553" lon="-0.38849">
        <ele>1332.0439453125</ele>
        <time>2015-06-05T13:13:34Z</time>
      </trkpt>
      <trkpt lat="42.84579" lon="-0.38856">
        <ele>1332.0439453125</ele>
        <time>2015-06-05T13:13:57Z</time>
      </trkpt>
      <trkpt lat="42.846" lon="-0.38864">
        <ele>1330.6020507812</ele>
        <time>2015-06-05T13:14:15Z</time>
      </trkpt>
      <trkpt lat="42.8463" lon="-0.38869">
        <ele>1330.6020507812</ele>
        <time>2015-06-05T13:14:38Z</time>
      </trkpt>
      <trkpt lat="42.84652" lon="-0.3887">
        <ele>1331.5632324219</ele>
        <time>2015-06-05T13:14:55Z</time>
      </trkpt>
      <trkpt lat="42.84675" lon="-0.38881">
        <ele>1330.1213378906</ele>
        <time>2015-06-05T13:15:14Z</time>
      </trkpt>
      <trkpt lat="42.84703" lon="-0.38888">
        <ele>1330.1213378906</ele>
        <time>2015-06-05T13:15:37Z</time>
      </trkpt>
      <trkpt lat="42.84727" lon="-0.38898">
        <ele>1332.5246582031</ele>
        <time>2015-06-05T13:15:56Z</time>
      </trkpt>
      <trkpt lat="42.84753" lon="-0.38902">
        <ele>1332.5246582031</ele>
        <time>2015-06-05T13:16:17Z</time>
      </trkpt>
      <trkpt lat="42.84787" lon="-0.38903">
        <ele>1330.6020507812</ele>
        <time>2015-06-05T13:16:42Z</time>
      </trkpt>
      <trkpt lat="42.84814" lon="-0.38913">
        <ele>1329.640625</ele>
        <time>2015-06-05T13:17:04Z</time>
      </trkpt>
      <trkpt lat="42.84838" lon="-0.38933">
        <ele>1326.7568359375</ele>
        <time>2015-06-05T13:17:26Z</time>
      </trkpt>
      <trkpt lat="42.84865" lon="-0.38943">
        <ele>1326.2761230469</ele>
        <time>2015-06-05T13:17:48Z</time>
      </trkpt>
      <trkpt lat="42.84888" lon="-0.38944">
        <ele>1327.7180175781</ele>
        <time>2015-06-05T13:18:06Z</time>
      </trkpt>
      <trkpt lat="42.84921" lon="-0.38957">
        <ele>1326.7568359375</ele>
        <time>2015-06-05T13:18:31Z</time>
      </trkpt>
      <trkpt lat="42.84949" lon="-0.38964">
        <ele>1327.7180175781</ele>
        <time>2015-06-05T13:18:52Z</time>
      </trkpt>
      <trkpt lat="42.8498" lon="-0.38971">
        <ele>1327.2375488281</ele>
        <time>2015-06-05T13:19:16Z</time>
      </trkpt>
      <trkpt lat="42.85013" lon="-0.3898">
        <ele>1327.2375488281</ele>
        <time>2015-06-05T13:19:41Z</time>
      </trkpt>
      <trkpt lat="42.85039" lon="-0.38983">
        <ele>1325.3146972656</ele>
        <time>2015-06-05T13:20:01Z</time>
      </trkpt>
      <trkpt lat="42.85071" lon="-0.3899">
        <ele>1323.3920898438</ele>
        <time>2015-06-05T13:20:24Z</time>
      </trkpt>
      <trkpt lat="42.85103" lon="-0.38996">
        <ele>1322.4306640625</ele>
        <time>2015-06-05T13:20:48Z</time>
      </trkpt>
      <trkpt lat="42.85138" lon="-0.39006">
        <ele>1321.9499511719</ele>
        <time>2015-06-05T13:21:15Z</time>
      </trkpt>
      <trkpt lat="42.85171" lon="-0.39019">
        <ele>1319.0661621094</ele>
        <time>2015-06-05T13:21:41Z</time>
      </trkpt>
      <trkpt lat="42.85205" lon="-0.39031">
        <ele>1316.6628417969</ele>
        <time>2015-06-05T13:22:07Z</time>
      </trkpt>
      <trkpt lat="42.85235" lon="-0.39043">
        <ele>1313.7788085938</ele>
        <time>2015-06-05T13:22:30Z</time>
      </trkpt>
      <trkpt lat="42.85257" lon="-0.39047">
        <ele>1311.3757324219</ele>
        <time>2015-06-05T13:22:49Z</time>
      </trkpt>
      <trkpt lat="42.85268" lon="-0.39052">
        <ele>1311.3757324219</ele>
        <time>2015-06-05T13:23:02Z</time>
      </trkpt>
      <trkpt lat="42.85274" lon="-0.3906">
        <ele>1309.93359375</ele>
        <time>2015-06-05T13:23:09Z</time>
      </trkpt>
      <trkpt lat="42.85288" lon="-0.39085">
        <ele>1310.8950195312</ele>
        <time>2015-06-05T13:23:28Z</time>
      </trkpt>
      <trkpt lat="42.85316" lon="-0.39088">
        <ele>1310.8950195312</ele>
        <time>2015-06-05T13:23:50Z</time>
      </trkpt>
      <trkpt lat="42.85328" lon="-0.39087">
        <ele>1310.4143066406</ele>
        <time>2015-06-05T13:24:04Z</time>
      </trkpt>
      <trkpt lat="42.85345" lon="-0.3911">
        <ele>1308.4916992188</ele>
        <time>2015-06-05T13:24:24Z</time>
      </trkpt>
      <trkpt lat="42.85368" lon="-0.39117">
        <ele>1307.5302734375</ele>
        <time>2015-06-05T13:24:42Z</time>
      </trkpt>
      <trkpt lat="42.85388" lon="-0.39102">
        <ele>1305.6076660156</ele>
        <time>2015-06-05T13:25:00Z</time>
      </trkpt>
      <trkpt lat="42.85414" lon="-0.39083">
        <ele>1305.6076660156</ele>
        <time>2015-06-05T13:25:23Z</time>
      </trkpt>
      <trkpt lat="42.85438" lon="-0.39086">
        <ele>1302.2429199219</ele>
        <time>2015-06-05T13:25:43Z</time>
      </trkpt>
      <trkpt lat="42.85439" lon="-0.39087">
        <ele>1301.7624511719</ele>
        <time>2015-06-05T13:25:44Z</time>
      </trkpt>
      <trkpt lat="42.8546" lon="-0.39089">
        <ele>1300.8010253906</ele>
        <time>2015-06-05T13:26:01Z</time>
      </trkpt>
      <trkpt lat="42.8548" lon="-0.39083">
        <ele>1301.2817382812</ele>
        <time>2015-06-05T13:26:17Z</time>
      </trkpt>
      <trkpt lat="42.85502" lon="-0.3908">
        <ele>1299.83984375</ele>
        <time>2015-06-05T13:26:33Z</time>
      </trkpt>
      <trkpt lat="42.85522" lon="-0.39061">
        <ele>1299.3591308594</ele>
        <time>2015-06-05T13:26:52Z</time>
      </trkpt>
      <trkpt lat="42.85549" lon="-0.39063">
        <ele>1297.9172363281</ele>
        <time>2015-06-05T13:27:13Z</time>
      </trkpt>
      <trkpt lat="42.85571" lon="-0.39079">
        <ele>1297.9172363281</ele>
        <time>2015-06-05T13:27:34Z</time>
      </trkpt>
      <trkpt lat="42.8558" lon="-0.39105">
        <ele>1297.9172363281</ele>
        <time>2015-06-05T13:27:52Z</time>
      </trkpt>
      <trkpt lat="42.85598" lon="-0.39126">
        <ele>1297.4365234375</ele>
        <time>2015-06-05T13:28:10Z</time>
      </trkpt>
      <trkpt lat="42.85625" lon="-0.39145">
        <ele>1296.4753417969</ele>
        <time>2015-06-05T13:28:33Z</time>
      </trkpt>
      <trkpt lat="42.85646" lon="-0.39168">
        <ele>1296.4753417969</ele>
        <time>2015-06-05T13:28:54Z</time>
      </trkpt>
      <trkpt lat="42.85668" lon="-0.3918">
        <ele>1297.9172363281</ele>
        <time>2015-06-05T13:29:15Z</time>
      </trkpt>
      <trkpt lat="42.8569" lon="-0.39186">
        <ele>1296.4753417969</ele>
        <time>2015-06-05T13:29:34Z</time>
      </trkpt>
      <trkpt lat="42.85707" lon="-0.39183">
        <ele>1295.9946289062</ele>
        <time>2015-06-05T13:29:53Z</time>
      </trkpt>
      <trkpt lat="42.85722" lon="-0.39181">
        <ele>1295.9946289062</ele>
        <time>2015-06-05T13:30:07Z</time>
      </trkpt>
      <trkpt lat="42.85747" lon="-0.39193">
        <ele>1295.5139160156</ele>
        <time>2015-06-05T13:30:28Z</time>
      </trkpt>
      <trkpt lat="42.85767" lon="-0.39191">
        <ele>1292.6301269531</ele>
        <time>2015-06-05T13:30:45Z</time>
      </trkpt>
      <trkpt lat="42.85793" lon="-0.39191">
        <ele>1292.1494140625</ele>
        <time>2015-06-05T13:31:06Z</time>
      </trkpt>
      <trkpt lat="42.85825" lon="-0.39201">
        <ele>1289.7458496094</ele>
        <time>2015-06-05T13:31:33Z</time>
      </trkpt>
      <trkpt lat="42.85841" lon="-0.3921">
        <ele>1286.3813476562</ele>
        <time>2015-06-05T13:31:48Z</time>
      </trkpt>
      <trkpt lat="42.8586" lon="-0.39229">
        <ele>1284.4587402344</ele>
        <time>2015-06-05T13:32:09Z</time>
      </trkpt>
      <trkpt lat="42.8587" lon="-0.39251">
        <ele>1284.4587402344</ele>
        <time>2015-06-05T13:32:30Z</time>
      </trkpt>
      <trkpt lat="42.85878" lon="-0.39264">
        <ele>1284.939453125</ele>
        <time>2015-06-05T13:32:43Z</time>
      </trkpt>
      <trkpt lat="42.85892" lon="-0.39264">
        <ele>1286.3813476562</ele>
        <time>2015-06-05T13:33:02Z</time>
      </trkpt>
      <trkpt lat="42.85899" lon="-0.39267">
        <ele>1287.3425292969</ele>
        <time>2015-06-05T13:33:08Z</time>
      </trkpt>
      <trkpt lat="42.85927" lon="-0.39279">
        <ele>1286.8618164062</ele>
        <time>2015-06-05T13:33:31Z</time>
      </trkpt>
      <trkpt lat="42.85936" lon="-0.39279">
        <ele>1286.3813476562</ele>
        <time>2015-06-05T13:33:40Z</time>
      </trkpt>
      <trkpt lat="42.85942" lon="-0.39276">
        <ele>1286.3813476562</ele>
        <time>2015-06-05T13:33:45Z</time>
      </trkpt>
      <trkpt lat="42.8595" lon="-0.39271">
        <ele>1286.3813476562</ele>
        <time>2015-06-05T13:33:52Z</time>
      </trkpt>
      <trkpt lat="42.85956" lon="-0.39272">
        <ele>1286.8618164062</ele>
        <time>2015-06-05T13:33:57Z</time>
      </trkpt>
      <trkpt lat="42.85976" lon="-0.39268">
        <ele>1285.419921875</ele>
        <time>2015-06-05T13:34:14Z</time>
      </trkpt>
      <trkpt lat="42.85994" lon="-0.39263">
        <ele>1285.9006347656</ele>
        <time>2015-06-05T13:34:32Z</time>
      </trkpt>
      <trkpt lat="42.85995" lon="-0.39263">
        <ele>1285.9006347656</ele>
        <time>2015-06-05T13:34:34Z</time>
      </trkpt>
      <trkpt lat="42.86007" lon="-0.39253">
        <ele>1287.3425292969</ele>
        <time>2015-06-05T13:34:49Z</time>
      </trkpt>
      <trkpt lat="42.86009" lon="-0.3925">
        <ele>1289.2651367188</ele>
        <time>2015-06-05T13:34:54Z</time>
      </trkpt>
      <trkpt lat="42.86013" lon="-0.39245">
        <ele>1288.3039550781</ele>
        <time>2015-06-05T13:34:58Z</time>
      </trkpt>
      <trkpt lat="42.86016" lon="-0.39241">
        <ele>1287.8232421875</ele>
        <time>2015-06-05T13:35:02Z</time>
      </trkpt>
      <trkpt lat="42.86033" lon="-0.39223">
        <ele>1285.419921875</ele>
        <time>2015-06-05T13:35:21Z</time>
      </trkpt>
      <trkpt lat="42.86046" lon="-0.39215">
        <ele>1283.4973144531</ele>
        <time>2015-06-05T13:35:36Z</time>
      </trkpt>
      <trkpt lat="42.86067" lon="-0.39207">
        <ele>1281.5747070312</ele>
        <time>2015-06-05T13:35:55Z</time>
      </trkpt>
      <trkpt lat="42.86083" lon="-0.39196">
        <ele>1281.0942382812</ele>
        <time>2015-06-05T13:36:09Z</time>
      </trkpt>
      <trkpt lat="42.86113" lon="-0.39193">
        <ele>1280.1328125</ele>
        <time>2015-06-05T13:36:33Z</time>
      </trkpt>
      <trkpt lat="42.86135" lon="-0.39199">
        <ele>1279.1713867188</ele>
        <time>2015-06-05T13:36:51Z</time>
      </trkpt>
      <trkpt lat="42.86152" lon="-0.39205">
        <ele>1278.2102050781</ele>
        <time>2015-06-05T13:37:06Z</time>
      </trkpt>
      <trkpt lat="42.86168" lon="-0.39205">
        <ele>1277.7294921875</ele>
        <time>2015-06-05T13:37:22Z</time>
      </trkpt>
      <trkpt lat="42.86186" lon="-0.39211">
        <ele>1277.7294921875</ele>
        <time>2015-06-05T13:37:37Z</time>
      </trkpt>
      <trkpt lat="42.86203" lon="-0.39215">
        <ele>1276.2875976562</ele>
        <time>2015-06-05T13:37:51Z</time>
      </trkpt>
      <trkpt lat="42.86215" lon="-0.39219">
        <ele>1275.3259277344</ele>
        <time>2015-06-05T13:37:59Z</time>
      </trkpt>
      <trkpt lat="42.86222" lon="-0.39224">
        <ele>1275.3259277344</ele>
        <time>2015-06-05T13:38:04Z</time>
      </trkpt>
      <trkpt lat="42.86232" lon="-0.39229">
        <ele>1274.8454589844</ele>
        <time>2015-06-05T13:38:12Z</time>
      </trkpt>
      <trkpt lat="42.86251" lon="-0.39238">
        <ele>1273.4035644531</ele>
        <time>2015-06-05T13:38:30Z</time>
      </trkpt>
      <trkpt lat="42.86271" lon="-0.39247">
        <ele>1273.4035644531</ele>
        <time>2015-06-05T13:38:47Z</time>
      </trkpt>
      <trkpt lat="42.86297" lon="-0.3924">
        <ele>1272.9228515625</ele>
        <time>2015-06-05T13:39:09Z</time>
      </trkpt>
      <trkpt lat="42.86324" lon="-0.39232">
        <ele>1271.0002441406</ele>
        <time>2015-06-05T13:39:31Z</time>
      </trkpt>
      <trkpt lat="42.86342" lon="-0.39235">
        <ele>1268.1162109375</ele>
        <time>2015-06-05T13:39:49Z</time>
      </trkpt>
      <trkpt lat="42.86344" lon="-0.39236">
        <ele>1268.5969238281</ele>
        <time>2015-06-05T13:40:12Z</time>
      </trkpt>
      <trkpt lat="42.86345" lon="-0.39237">
        <ele>1268.5969238281</ele>
        <time>2015-06-05T13:40:16Z</time>
      </trkpt>
      <trkpt lat="42.86339" lon="-0.39234">
        <ele>1267.6354980469</ele>
        <time>2015-06-05T13:40:38Z</time>
      </trkpt>
      <trkpt lat="42.86335" lon="-0.39229">
        <ele>1268.5969238281</ele>
        <time>2015-06-05T13:41:18Z</time>
      </trkpt>
    </trkseg>
  </trk>
</gpx>